<?xml version="1.0" encoding="UTF-8" standalone="no" ?>
<gpx xmlns="http://www.topografix.com/GPX/1/1" xmlns:xsi="http://www.w3.org/2001/XMLSchema-instance" xsi:schemaLocation="http://www.topografix.com/GPX/1/1 http://www.topografix.com/GPX/1/1/gpx.xsd" version="1.1" creator="VisuGPX - https://www.visugpx.com">
  <metadata>
    <name>VISSOU   VALMASCLE</name>
    <desc><![CDATA[En partant de villeneuvette, en route pour la montée du vissou jusqu\'au point le plus haut, ensuite nous descendons au point de départ des deltaplanes. descentes très technique jusqu%u2019à cabrieres, puis en route sur valmascle. Ca.
 grimpe!!! retour sur la piste dfci qui mène au croze puis mega descente sur cabrières de nouveau. On finit par la montée de la mine et retour à villeneuvette. ]]></desc>
  </metadata>
  <trk>
    <name><![CDATA[05-OCT-14 13:38:04]]></name>
    <trkseg>
      <trkpt lat="43.61048" lon="3.40209">
        <ele>146.26</ele>
        <time>2014-10-05T07:54:50Z</time>
      </trkpt>
      <trkpt lat="43.61048" lon="3.40209">
        <ele>144.82</ele>
        <time>2014-10-05T07:55:08Z</time>
      </trkpt>
      <trkpt lat="43.61049" lon="3.40209">
        <ele>144.34</ele>
        <time>2014-10-05T07:55:32Z</time>
      </trkpt>
      <trkpt lat="43.61049" lon="3.40209">
        <ele>143.85</ele>
        <time>2014-10-05T07:55:54Z</time>
      </trkpt>
      <trkpt lat="43.61049" lon="3.40211">
        <ele>142.41</ele>
        <time>2014-10-05T07:56:16Z</time>
      </trkpt>
      <trkpt lat="43.61049" lon="3.40211">
        <ele>142.89</ele>
        <time>2014-10-05T07:56:23Z</time>
      </trkpt>
      <trkpt lat="43.61052" lon="3.40209">
        <ele>142.41</ele>
        <time>2014-10-05T07:56:27Z</time>
      </trkpt>
      <trkpt lat="43.61056" lon="3.40176">
        <ele>140.49</ele>
        <time>2014-10-05T07:56:41Z</time>
      </trkpt>
      <trkpt lat="43.61052" lon="3.40166">
        <ele>140.01</ele>
        <time>2014-10-05T07:56:46Z</time>
      </trkpt>
      <trkpt lat="43.61033" lon="3.40174">
        <ele>141.93</ele>
        <time>2014-10-05T07:56:58Z</time>
      </trkpt>
      <trkpt lat="43.61006" lon="3.40208">
        <ele>139.53</ele>
        <time>2014-10-05T07:57:10Z</time>
      </trkpt>
      <trkpt lat="43.60996" lon="3.40218">
        <ele>138.09</ele>
        <time>2014-10-05T07:57:16Z</time>
      </trkpt>
      <trkpt lat="43.60988" lon="3.40209">
        <ele>136.64</ele>
        <time>2014-10-05T07:57:20Z</time>
      </trkpt>
      <trkpt lat="43.60941" lon="3.40176">
        <ele>134.24</ele>
        <time>2014-10-05T07:57:35Z</time>
      </trkpt>
      <trkpt lat="43.60914" lon="3.40143">
        <ele>131.84</ele>
        <time>2014-10-05T07:57:45Z</time>
      </trkpt>
      <trkpt lat="43.60901" lon="3.40092">
        <ele>131.84</ele>
        <time>2014-10-05T07:57:57Z</time>
      </trkpt>
      <trkpt lat="43.6089" lon="3.40083">
        <ele>133.28</ele>
        <time>2014-10-05T07:58:02Z</time>
      </trkpt>
      <trkpt lat="43.60878" lon="3.40088">
        <ele>134.72</ele>
        <time>2014-10-05T07:58:09Z</time>
      </trkpt>
      <trkpt lat="43.60858" lon="3.40095">
        <ele>138.57</ele>
        <time>2014-10-05T07:58:23Z</time>
      </trkpt>
      <trkpt lat="43.60856" lon="3.40094">
        <ele>139.05</ele>
        <time>2014-10-05T07:58:25Z</time>
      </trkpt>
      <trkpt lat="43.60833" lon="3.40102">
        <ele>141.93</ele>
        <time>2014-10-05T07:58:39Z</time>
      </trkpt>
      <trkpt lat="43.60826" lon="3.40106">
        <ele>142.89</ele>
        <time>2014-10-05T07:58:43Z</time>
      </trkpt>
      <trkpt lat="43.60818" lon="3.401">
        <ele>143.85</ele>
        <time>2014-10-05T07:58:52Z</time>
      </trkpt>
      <trkpt lat="43.60821" lon="3.40094">
        <ele>143.85</ele>
        <time>2014-10-05T07:58:56Z</time>
      </trkpt>
      <trkpt lat="43.60821" lon="3.40072">
        <ele>147.22</ele>
        <time>2014-10-05T07:59:10Z</time>
      </trkpt>
      <trkpt lat="43.6082" lon="3.40071">
        <ele>147.22</ele>
        <time>2014-10-05T07:59:11Z</time>
      </trkpt>
      <trkpt lat="43.60814" lon="3.40071">
        <ele>147.7</ele>
        <time>2014-10-05T07:59:15Z</time>
      </trkpt>
      <trkpt lat="43.60795" lon="3.40079">
        <ele>150.1</ele>
        <time>2014-10-05T07:59:30Z</time>
      </trkpt>
      <trkpt lat="43.60777" lon="3.40099">
        <ele>152.03</ele>
        <time>2014-10-05T07:59:46Z</time>
      </trkpt>
      <trkpt lat="43.60773" lon="3.40105">
        <ele>152.03</ele>
        <time>2014-10-05T07:59:50Z</time>
      </trkpt>
      <trkpt lat="43.60766" lon="3.40112">
        <ele>152.99</ele>
        <time>2014-10-05T07:59:55Z</time>
      </trkpt>
      <trkpt lat="43.60749" lon="3.40113">
        <ele>154.91</ele>
        <time>2014-10-05T08:00:08Z</time>
      </trkpt>
      <trkpt lat="43.60746" lon="3.40115">
        <ele>154.91</ele>
        <time>2014-10-05T08:00:11Z</time>
      </trkpt>
      <trkpt lat="43.60743" lon="3.40114">
        <ele>154.43</ele>
        <time>2014-10-05T08:00:13Z</time>
      </trkpt>
      <trkpt lat="43.60723" lon="3.40131">
        <ele>156.83</ele>
        <time>2014-10-05T08:00:27Z</time>
      </trkpt>
      <trkpt lat="43.60713" lon="3.40136">
        <ele>156.83</ele>
        <time>2014-10-05T08:00:33Z</time>
      </trkpt>
      <trkpt lat="43.60688" lon="3.40138">
        <ele>158.75</ele>
        <time>2014-10-05T08:00:49Z</time>
      </trkpt>
      <trkpt lat="43.60672" lon="3.4017">
        <ele>161.16</ele>
        <time>2014-10-05T08:01:03Z</time>
      </trkpt>
      <trkpt lat="43.60665" lon="3.40212">
        <ele>163.56</ele>
        <time>2014-10-05T08:01:20Z</time>
      </trkpt>
      <trkpt lat="43.60651" lon="3.40232">
        <ele>163.08</ele>
        <time>2014-10-05T08:01:33Z</time>
      </trkpt>
      <trkpt lat="43.60634" lon="3.40253">
        <ele>164.04</ele>
        <time>2014-10-05T08:01:49Z</time>
      </trkpt>
      <trkpt lat="43.60613" lon="3.40277">
        <ele>168.37</ele>
        <time>2014-10-05T08:02:06Z</time>
      </trkpt>
      <trkpt lat="43.60596" lon="3.40296">
        <ele>167.89</ele>
        <time>2014-10-05T08:02:21Z</time>
      </trkpt>
      <trkpt lat="43.60575" lon="3.40306">
        <ele>171.25</ele>
        <time>2014-10-05T08:02:34Z</time>
      </trkpt>
      <trkpt lat="43.6057" lon="3.40306">
        <ele>171.73</ele>
        <time>2014-10-05T08:02:37Z</time>
      </trkpt>
      <trkpt lat="43.60558" lon="3.40305">
        <ele>173.17</ele>
        <time>2014-10-05T08:02:45Z</time>
      </trkpt>
      <trkpt lat="43.60532" lon="3.403">
        <ele>176.06</ele>
        <time>2014-10-05T08:03:01Z</time>
      </trkpt>
      <trkpt lat="43.60511" lon="3.40285">
        <ele>175.1</ele>
        <time>2014-10-05T08:03:14Z</time>
      </trkpt>
      <trkpt lat="43.60501" lon="3.40268">
        <ele>173.66</ele>
        <time>2014-10-05T08:03:25Z</time>
      </trkpt>
      <trkpt lat="43.60498" lon="3.40247">
        <ele>175.1</ele>
        <time>2014-10-05T08:03:38Z</time>
      </trkpt>
      <trkpt lat="43.60498" lon="3.40246">
        <ele>175.58</ele>
        <time>2014-10-05T08:03:39Z</time>
      </trkpt>
      <trkpt lat="43.605" lon="3.40228">
        <ele>175.58</ele>
        <time>2014-10-05T08:03:47Z</time>
      </trkpt>
      <trkpt lat="43.60501" lon="3.4018">
        <ele>175.1</ele>
        <time>2014-10-05T08:03:59Z</time>
      </trkpt>
      <trkpt lat="43.60504" lon="3.40177">
        <ele>173.66</ele>
        <time>2014-10-05T08:04:32Z</time>
      </trkpt>
      <trkpt lat="43.60505" lon="3.40166">
        <ele>172.69</ele>
        <time>2014-10-05T08:04:43Z</time>
      </trkpt>
      <trkpt lat="43.60525" lon="3.40117">
        <ele>169.81</ele>
        <time>2014-10-05T08:04:56Z</time>
      </trkpt>
      <trkpt lat="43.60522" lon="3.40071">
        <ele>168.85</ele>
        <time>2014-10-05T08:05:05Z</time>
      </trkpt>
      <trkpt lat="43.60519" lon="3.40052">
        <ele>168.85</ele>
        <time>2014-10-05T08:05:08Z</time>
      </trkpt>
      <trkpt lat="43.60518" lon="3.40038">
        <ele>168.37</ele>
        <time>2014-10-05T08:05:10Z</time>
      </trkpt>
      <trkpt lat="43.6052" lon="3.4001">
        <ele>167.41</ele>
        <time>2014-10-05T08:05:14Z</time>
      </trkpt>
      <trkpt lat="43.60523" lon="3.39982">
        <ele>166.45</ele>
        <time>2014-10-05T08:05:18Z</time>
      </trkpt>
      <trkpt lat="43.60544" lon="3.39889">
        <ele>163.56</ele>
        <time>2014-10-05T08:05:31Z</time>
      </trkpt>
      <trkpt lat="43.60545" lon="3.39866">
        <ele>162.6</ele>
        <time>2014-10-05T08:05:34Z</time>
      </trkpt>
      <trkpt lat="43.60539" lon="3.39839">
        <ele>161.16</ele>
        <time>2014-10-05T08:05:38Z</time>
      </trkpt>
      <trkpt lat="43.60554" lon="3.39803">
        <ele>158.27</ele>
        <time>2014-10-05T08:05:45Z</time>
      </trkpt>
      <trkpt lat="43.60566" lon="3.39791">
        <ele>157.31</ele>
        <time>2014-10-05T08:05:48Z</time>
      </trkpt>
      <trkpt lat="43.60591" lon="3.39754">
        <ele>154.43</ele>
        <time>2014-10-05T08:05:55Z</time>
      </trkpt>
      <trkpt lat="43.6061" lon="3.39707">
        <ele>153.47</ele>
        <time>2014-10-05T08:06:04Z</time>
      </trkpt>
      <trkpt lat="43.60626" lon="3.39687">
        <ele>152.99</ele>
        <time>2014-10-05T08:06:09Z</time>
      </trkpt>
      <trkpt lat="43.60642" lon="3.39656">
        <ele>152.51</ele>
        <time>2014-10-05T08:06:15Z</time>
      </trkpt>
      <trkpt lat="43.60674" lon="3.39608">
        <ele>151.06</ele>
        <time>2014-10-05T08:06:24Z</time>
      </trkpt>
      <trkpt lat="43.60681" lon="3.39585">
        <ele>150.1</ele>
        <time>2014-10-05T08:06:28Z</time>
      </trkpt>
      <trkpt lat="43.60682" lon="3.39572">
        <ele>150.1</ele>
        <time>2014-10-05T08:06:31Z</time>
      </trkpt>
      <trkpt lat="43.60668" lon="3.39558">
        <ele>150.58</ele>
        <time>2014-10-05T08:06:40Z</time>
      </trkpt>
      <trkpt lat="43.6065" lon="3.39544">
        <ele>152.03</ele>
        <time>2014-10-05T08:06:52Z</time>
      </trkpt>
      <trkpt lat="43.6065" lon="3.39529">
        <ele>152.99</ele>
        <time>2014-10-05T08:06:58Z</time>
      </trkpt>
      <trkpt lat="43.60673" lon="3.39504">
        <ele>156.35</ele>
        <time>2014-10-05T08:07:16Z</time>
      </trkpt>
      <trkpt lat="43.60694" lon="3.39494">
        <ele>160.68</ele>
        <time>2014-10-05T08:07:33Z</time>
      </trkpt>
      <trkpt lat="43.60696" lon="3.39493">
        <ele>160.68</ele>
        <time>2014-10-05T08:07:34Z</time>
      </trkpt>
      <trkpt lat="43.60715" lon="3.39486">
        <ele>165</ele>
        <time>2014-10-05T08:07:50Z</time>
      </trkpt>
      <trkpt lat="43.60733" lon="3.39477">
        <ele>170.29</ele>
        <time>2014-10-05T08:08:04Z</time>
      </trkpt>
      <trkpt lat="43.6075" lon="3.39458">
        <ele>175.58</ele>
        <time>2014-10-05T08:08:19Z</time>
      </trkpt>
      <trkpt lat="43.60762" lon="3.39442">
        <ele>178.46</ele>
        <time>2014-10-05T08:08:32Z</time>
      </trkpt>
      <trkpt lat="43.60761" lon="3.39418">
        <ele>181.83</ele>
        <time>2014-10-05T08:08:46Z</time>
      </trkpt>
      <trkpt lat="43.6076" lon="3.39416">
        <ele>181.83</ele>
        <time>2014-10-05T08:08:47Z</time>
      </trkpt>
      <trkpt lat="43.60756" lon="3.39404">
        <ele>182.31</ele>
        <time>2014-10-05T08:08:54Z</time>
      </trkpt>
      <trkpt lat="43.60751" lon="3.39372">
        <ele>184.71</ele>
        <time>2014-10-05T08:09:12Z</time>
      </trkpt>
      <trkpt lat="43.60746" lon="3.39357">
        <ele>185.19</ele>
        <time>2014-10-05T08:09:21Z</time>
      </trkpt>
      <trkpt lat="43.60735" lon="3.39324">
        <ele>187.11</ele>
        <time>2014-10-05T08:09:38Z</time>
      </trkpt>
      <trkpt lat="43.60728" lon="3.39295">
        <ele>189.52</ele>
        <time>2014-10-05T08:09:53Z</time>
      </trkpt>
      <trkpt lat="43.6072" lon="3.39259">
        <ele>193.36</ele>
        <time>2014-10-05T08:10:11Z</time>
      </trkpt>
      <trkpt lat="43.60718" lon="3.39249">
        <ele>194.32</ele>
        <time>2014-10-05T08:10:17Z</time>
      </trkpt>
      <trkpt lat="43.60715" lon="3.39224">
        <ele>194.32</ele>
        <time>2014-10-05T08:10:31Z</time>
      </trkpt>
      <trkpt lat="43.60714" lon="3.39223">
        <ele>194.32</ele>
        <time>2014-10-05T08:10:32Z</time>
      </trkpt>
      <trkpt lat="43.60713" lon="3.39219">
        <ele>194.32</ele>
        <time>2014-10-05T08:10:35Z</time>
      </trkpt>
      <trkpt lat="43.60708" lon="3.39195">
        <ele>195.77</ele>
        <time>2014-10-05T08:10:49Z</time>
      </trkpt>
      <trkpt lat="43.60704" lon="3.39189">
        <ele>196.73</ele>
        <time>2014-10-05T08:10:53Z</time>
      </trkpt>
      <trkpt lat="43.60702" lon="3.39178">
        <ele>198.17</ele>
        <time>2014-10-05T08:10:59Z</time>
      </trkpt>
      <trkpt lat="43.607" lon="3.39156">
        <ele>200.09</ele>
        <time>2014-10-05T08:11:12Z</time>
      </trkpt>
      <trkpt lat="43.60689" lon="3.39136">
        <ele>201.53</ele>
        <time>2014-10-05T08:11:24Z</time>
      </trkpt>
      <trkpt lat="43.60669" lon="3.3915">
        <ele>202.49</ele>
        <time>2014-10-05T08:11:39Z</time>
      </trkpt>
      <trkpt lat="43.60644" lon="3.39145">
        <ele>204.9</ele>
        <time>2014-10-05T08:11:56Z</time>
      </trkpt>
      <trkpt lat="43.60623" lon="3.39126">
        <ele>206.82</ele>
        <time>2014-10-05T08:12:13Z</time>
      </trkpt>
      <trkpt lat="43.60605" lon="3.3909">
        <ele>210.67</ele>
        <time>2014-10-05T08:12:31Z</time>
      </trkpt>
      <trkpt lat="43.60602" lon="3.39082">
        <ele>211.15</ele>
        <time>2014-10-05T08:12:35Z</time>
      </trkpt>
      <trkpt lat="43.606" lon="3.39072">
        <ele>211.63</ele>
        <time>2014-10-05T08:12:39Z</time>
      </trkpt>
      <trkpt lat="43.60597" lon="3.39063">
        <ele>212.11</ele>
        <time>2014-10-05T08:12:43Z</time>
      </trkpt>
      <trkpt lat="43.60592" lon="3.39027">
        <ele>214.03</ele>
        <time>2014-10-05T08:12:58Z</time>
      </trkpt>
      <trkpt lat="43.60589" lon="3.38985">
        <ele>214.51</ele>
        <time>2014-10-05T08:13:15Z</time>
      </trkpt>
      <trkpt lat="43.60585" lon="3.38945">
        <ele>215.95</ele>
        <time>2014-10-05T08:13:31Z</time>
      </trkpt>
      <trkpt lat="43.60585" lon="3.38905">
        <ele>216.91</ele>
        <time>2014-10-05T08:13:46Z</time>
      </trkpt>
      <trkpt lat="43.6058" lon="3.38871">
        <ele>219.8</ele>
        <time>2014-10-05T08:14:00Z</time>
      </trkpt>
      <trkpt lat="43.60576" lon="3.38855">
        <ele>220.28</ele>
        <time>2014-10-05T08:14:06Z</time>
      </trkpt>
      <trkpt lat="43.6055" lon="3.38851">
        <ele>220.28</ele>
        <time>2014-10-05T08:14:17Z</time>
      </trkpt>
      <trkpt lat="43.60546" lon="3.3885">
        <ele>220.76</ele>
        <time>2014-10-05T08:14:19Z</time>
      </trkpt>
      <trkpt lat="43.60519" lon="3.38828">
        <ele>223.16</ele>
        <time>2014-10-05T08:14:34Z</time>
      </trkpt>
      <trkpt lat="43.60515" lon="3.38784">
        <ele>224.61</ele>
        <time>2014-10-05T08:14:50Z</time>
      </trkpt>
      <trkpt lat="43.60519" lon="3.38739">
        <ele>226.05</ele>
        <time>2014-10-05T08:15:05Z</time>
      </trkpt>
      <trkpt lat="43.60501" lon="3.38707">
        <ele>227.49</ele>
        <time>2014-10-05T08:15:18Z</time>
      </trkpt>
      <trkpt lat="43.60481" lon="3.38665">
        <ele>229.41</ele>
        <time>2014-10-05T08:15:34Z</time>
      </trkpt>
      <trkpt lat="43.60461" lon="3.38625">
        <ele>229.89</ele>
        <time>2014-10-05T08:15:49Z</time>
      </trkpt>
      <trkpt lat="43.6044" lon="3.38578">
        <ele>231.81</ele>
        <time>2014-10-05T08:16:06Z</time>
      </trkpt>
      <trkpt lat="43.60425" lon="3.38532">
        <ele>231.81</ele>
        <time>2014-10-05T08:16:22Z</time>
      </trkpt>
      <trkpt lat="43.60414" lon="3.38494">
        <ele>233.26</ele>
        <time>2014-10-05T08:16:35Z</time>
      </trkpt>
      <trkpt lat="43.60404" lon="3.38449">
        <ele>233.26</ele>
        <time>2014-10-05T08:16:49Z</time>
      </trkpt>
      <trkpt lat="43.60392" lon="3.38388">
        <ele>235.18</ele>
        <time>2014-10-05T08:17:07Z</time>
      </trkpt>
      <trkpt lat="43.60386" lon="3.38332">
        <ele>236.14</ele>
        <time>2014-10-05T08:17:23Z</time>
      </trkpt>
      <trkpt lat="43.60384" lon="3.38264">
        <ele>237.58</ele>
        <time>2014-10-05T08:17:42Z</time>
      </trkpt>
      <trkpt lat="43.60381" lon="3.38208">
        <ele>239.51</ele>
        <time>2014-10-05T08:17:58Z</time>
      </trkpt>
      <trkpt lat="43.60377" lon="3.38154">
        <ele>241.43</ele>
        <time>2014-10-05T08:18:14Z</time>
      </trkpt>
      <trkpt lat="43.60373" lon="3.38099">
        <ele>242.39</ele>
        <time>2014-10-05T08:18:30Z</time>
      </trkpt>
      <trkpt lat="43.60369" lon="3.38056">
        <ele>243.83</ele>
        <time>2014-10-05T08:18:42Z</time>
      </trkpt>
      <trkpt lat="43.60364" lon="3.38007">
        <ele>245.27</ele>
        <time>2014-10-05T08:18:56Z</time>
      </trkpt>
      <trkpt lat="43.60359" lon="3.37952">
        <ele>246.72</ele>
        <time>2014-10-05T08:19:12Z</time>
      </trkpt>
      <trkpt lat="43.60356" lon="3.37907">
        <ele>247.68</ele>
        <time>2014-10-05T08:19:26Z</time>
      </trkpt>
      <trkpt lat="43.60352" lon="3.37857">
        <ele>249.12</ele>
        <time>2014-10-05T08:19:41Z</time>
      </trkpt>
      <trkpt lat="43.60338" lon="3.3779">
        <ele>252.48</ele>
        <time>2014-10-05T08:20:00Z</time>
      </trkpt>
      <trkpt lat="43.60326" lon="3.37747">
        <ele>254.41</ele>
        <time>2014-10-05T08:20:13Z</time>
      </trkpt>
      <trkpt lat="43.60324" lon="3.37691">
        <ele>255.37</ele>
        <time>2014-10-05T08:20:30Z</time>
      </trkpt>
      <trkpt lat="43.60327" lon="3.37647">
        <ele>256.81</ele>
        <time>2014-10-05T08:20:45Z</time>
      </trkpt>
      <trkpt lat="43.6033" lon="3.376">
        <ele>257.29</ele>
        <time>2014-10-05T08:21:01Z</time>
      </trkpt>
      <trkpt lat="43.60329" lon="3.37554">
        <ele>259.69</ele>
        <time>2014-10-05T08:21:17Z</time>
      </trkpt>
      <trkpt lat="43.60332" lon="3.37499">
        <ele>261.62</ele>
        <time>2014-10-05T08:21:36Z</time>
      </trkpt>
      <trkpt lat="43.60337" lon="3.37471">
        <ele>264.5</ele>
        <time>2014-10-05T08:21:49Z</time>
      </trkpt>
      <trkpt lat="43.60339" lon="3.37432">
        <ele>265.94</ele>
        <time>2014-10-05T08:22:03Z</time>
      </trkpt>
      <trkpt lat="43.60337" lon="3.3738">
        <ele>265.46</ele>
        <time>2014-10-05T08:22:19Z</time>
      </trkpt>
      <trkpt lat="43.6034" lon="3.37327">
        <ele>266.42</ele>
        <time>2014-10-05T08:22:36Z</time>
      </trkpt>
      <trkpt lat="43.60352" lon="3.37278">
        <ele>268.83</ele>
        <time>2014-10-05T08:22:53Z</time>
      </trkpt>
      <trkpt lat="43.60365" lon="3.37223">
        <ele>270.27</ele>
        <time>2014-10-05T08:23:11Z</time>
      </trkpt>
      <trkpt lat="43.60375" lon="3.37169">
        <ele>271.71</ele>
        <time>2014-10-05T08:23:28Z</time>
      </trkpt>
      <trkpt lat="43.60377" lon="3.37113">
        <ele>272.19</ele>
        <time>2014-10-05T08:23:43Z</time>
      </trkpt>
      <trkpt lat="43.60381" lon="3.37048">
        <ele>273.15</ele>
        <time>2014-10-05T08:24:01Z</time>
      </trkpt>
      <trkpt lat="43.60391" lon="3.3698">
        <ele>274.59</ele>
        <time>2014-10-05T08:24:20Z</time>
      </trkpt>
      <trkpt lat="43.60385" lon="3.36912">
        <ele>276.04</ele>
        <time>2014-10-05T08:24:40Z</time>
      </trkpt>
      <trkpt lat="43.6037" lon="3.36869">
        <ele>277.48</ele>
        <time>2014-10-05T08:24:54Z</time>
      </trkpt>
      <trkpt lat="43.60346" lon="3.36805">
        <ele>279.4</ele>
        <time>2014-10-05T08:25:15Z</time>
      </trkpt>
      <trkpt lat="43.60332" lon="3.36737">
        <ele>283.25</ele>
        <time>2014-10-05T08:25:35Z</time>
      </trkpt>
      <trkpt lat="43.60309" lon="3.36699">
        <ele>284.69</ele>
        <time>2014-10-05T08:25:49Z</time>
      </trkpt>
      <trkpt lat="43.60309" lon="3.36665">
        <ele>286.13</ele>
        <time>2014-10-05T08:25:59Z</time>
      </trkpt>
      <trkpt lat="43.6033" lon="3.36625">
        <ele>288.53</ele>
        <time>2014-10-05T08:26:13Z</time>
      </trkpt>
      <trkpt lat="43.60348" lon="3.36575">
        <ele>290.94</ele>
        <time>2014-10-05T08:26:29Z</time>
      </trkpt>
      <trkpt lat="43.60358" lon="3.36523">
        <ele>292.38</ele>
        <time>2014-10-05T08:26:44Z</time>
      </trkpt>
      <trkpt lat="43.60366" lon="3.36458">
        <ele>293.82</ele>
        <time>2014-10-05T08:27:03Z</time>
      </trkpt>
      <trkpt lat="43.60371" lon="3.36407">
        <ele>293.82</ele>
        <time>2014-10-05T08:27:17Z</time>
      </trkpt>
      <trkpt lat="43.60377" lon="3.36349">
        <ele>294.3</ele>
        <time>2014-10-05T08:27:32Z</time>
      </trkpt>
      <trkpt lat="43.60384" lon="3.36291">
        <ele>295.26</ele>
        <time>2014-10-05T08:27:47Z</time>
      </trkpt>
      <trkpt lat="43.6039" lon="3.36235">
        <ele>297.67</ele>
        <time>2014-10-05T08:28:02Z</time>
      </trkpt>
      <trkpt lat="43.60393" lon="3.36175">
        <ele>299.59</ele>
        <time>2014-10-05T08:28:19Z</time>
      </trkpt>
      <trkpt lat="43.60385" lon="3.36118">
        <ele>301.51</ele>
        <time>2014-10-05T08:28:35Z</time>
      </trkpt>
      <trkpt lat="43.60369" lon="3.36092">
        <ele>302.47</ele>
        <time>2014-10-05T08:28:45Z</time>
      </trkpt>
      <trkpt lat="43.60343" lon="3.36069">
        <ele>303.91</ele>
        <time>2014-10-05T08:29:00Z</time>
      </trkpt>
      <trkpt lat="43.6033" lon="3.36055">
        <ele>304.39</ele>
        <time>2014-10-05T08:29:11Z</time>
      </trkpt>
      <trkpt lat="43.6033" lon="3.36011">
        <ele>305.84</ele>
        <time>2014-10-05T08:29:27Z</time>
      </trkpt>
      <trkpt lat="43.60332" lon="3.3598">
        <ele>307.28</ele>
        <time>2014-10-05T08:29:40Z</time>
      </trkpt>
      <trkpt lat="43.60331" lon="3.3598">
        <ele>307.28</ele>
        <time>2014-10-05T08:30:00Z</time>
      </trkpt>
      <trkpt lat="43.60331" lon="3.3598">
        <ele>307.28</ele>
        <time>2014-10-05T08:30:01Z</time>
      </trkpt>
      <trkpt lat="43.60335" lon="3.35972">
        <ele>307.28</ele>
        <time>2014-10-05T08:30:05Z</time>
      </trkpt>
      <trkpt lat="43.60347" lon="3.35919">
        <ele>307.28</ele>
        <time>2014-10-05T08:30:19Z</time>
      </trkpt>
      <trkpt lat="43.60331" lon="3.35886">
        <ele>307.28</ele>
        <time>2014-10-05T08:30:30Z</time>
      </trkpt>
      <trkpt lat="43.603" lon="3.35891">
        <ele>307.76</ele>
        <time>2014-10-05T08:30:42Z</time>
      </trkpt>
      <trkpt lat="43.60247" lon="3.35897">
        <ele>307.76</ele>
        <time>2014-10-05T08:30:59Z</time>
      </trkpt>
      <trkpt lat="43.60243" lon="3.35896">
        <ele>308.24</ele>
        <time>2014-10-05T08:31:00Z</time>
      </trkpt>
      <trkpt lat="43.60239" lon="3.35864">
        <ele>310.64</ele>
        <time>2014-10-05T08:31:09Z</time>
      </trkpt>
      <trkpt lat="43.60253" lon="3.35858">
        <ele>311.6</ele>
        <time>2014-10-05T08:31:14Z</time>
      </trkpt>
      <trkpt lat="43.60291" lon="3.3583">
        <ele>314.01</ele>
        <time>2014-10-05T08:31:30Z</time>
      </trkpt>
      <trkpt lat="43.60319" lon="3.35786">
        <ele>316.41</ele>
        <time>2014-10-05T08:31:46Z</time>
      </trkpt>
      <trkpt lat="43.60348" lon="3.35746">
        <ele>316.41</ele>
        <time>2014-10-05T08:31:59Z</time>
      </trkpt>
      <trkpt lat="43.60353" lon="3.35738">
        <ele>315.93</ele>
        <time>2014-10-05T08:32:01Z</time>
      </trkpt>
      <trkpt lat="43.60376" lon="3.35648">
        <ele>313.05</ele>
        <time>2014-10-05T08:32:17Z</time>
      </trkpt>
      <trkpt lat="43.60377" lon="3.3559">
        <ele>316.41</ele>
        <time>2014-10-05T08:32:29Z</time>
      </trkpt>
      <trkpt lat="43.60353" lon="3.35551">
        <ele>318.33</ele>
        <time>2014-10-05T08:32:40Z</time>
      </trkpt>
      <trkpt lat="43.60311" lon="3.35542">
        <ele>319.3</ele>
        <time>2014-10-05T08:32:52Z</time>
      </trkpt>
      <trkpt lat="43.60259" lon="3.35536">
        <ele>322.18</ele>
        <time>2014-10-05T08:33:08Z</time>
      </trkpt>
      <trkpt lat="43.60229" lon="3.35513">
        <ele>323.62</ele>
        <time>2014-10-05T08:33:20Z</time>
      </trkpt>
      <trkpt lat="43.60221" lon="3.35466">
        <ele>325.54</ele>
        <time>2014-10-05T08:33:32Z</time>
      </trkpt>
      <trkpt lat="43.60192" lon="3.3543">
        <ele>327.47</ele>
        <time>2014-10-05T08:33:46Z</time>
      </trkpt>
      <trkpt lat="43.6015" lon="3.35405">
        <ele>328.91</ele>
        <time>2014-10-05T08:34:04Z</time>
      </trkpt>
      <trkpt lat="43.60124" lon="3.35386">
        <ele>328.91</ele>
        <time>2014-10-05T08:34:16Z</time>
      </trkpt>
      <trkpt lat="43.60097" lon="3.35383">
        <ele>333.23</ele>
        <time>2014-10-05T08:34:28Z</time>
      </trkpt>
      <trkpt lat="43.60078" lon="3.35355">
        <ele>336.6</ele>
        <time>2014-10-05T08:34:41Z</time>
      </trkpt>
      <trkpt lat="43.60102" lon="3.35289">
        <ele>339.96</ele>
        <time>2014-10-05T08:35:01Z</time>
      </trkpt>
      <trkpt lat="43.60087" lon="3.3525">
        <ele>339.96</ele>
        <time>2014-10-05T08:35:12Z</time>
      </trkpt>
      <trkpt lat="43.60066" lon="3.35214">
        <ele>341.41</ele>
        <time>2014-10-05T08:35:25Z</time>
      </trkpt>
      <trkpt lat="43.60048" lon="3.35167">
        <ele>346.21</ele>
        <time>2014-10-05T08:35:43Z</time>
      </trkpt>
      <trkpt lat="43.6002" lon="3.35135">
        <ele>348.13</ele>
        <time>2014-10-05T08:36:00Z</time>
      </trkpt>
      <trkpt lat="43.59994" lon="3.35155">
        <ele>351.02</ele>
        <time>2014-10-05T08:36:14Z</time>
      </trkpt>
      <trkpt lat="43.59963" lon="3.35181">
        <ele>353.9</ele>
        <time>2014-10-05T08:36:31Z</time>
      </trkpt>
      <trkpt lat="43.59934" lon="3.35207">
        <ele>356.79</ele>
        <time>2014-10-05T08:36:47Z</time>
      </trkpt>
      <trkpt lat="43.59908" lon="3.35223">
        <ele>360.15</ele>
        <time>2014-10-05T08:37:00Z</time>
      </trkpt>
      <trkpt lat="43.59867" lon="3.35231">
        <ele>363.04</ele>
        <time>2014-10-05T08:37:17Z</time>
      </trkpt>
      <trkpt lat="43.59838" lon="3.35228">
        <ele>365.44</ele>
        <time>2014-10-05T08:37:31Z</time>
      </trkpt>
      <trkpt lat="43.59816" lon="3.35195">
        <ele>368.8</ele>
        <time>2014-10-05T08:37:46Z</time>
      </trkpt>
      <trkpt lat="43.59785" lon="3.35185">
        <ele>372.17</ele>
        <time>2014-10-05T08:38:00Z</time>
      </trkpt>
      <trkpt lat="43.59755" lon="3.35189">
        <ele>373.13</ele>
        <time>2014-10-05T08:38:13Z</time>
      </trkpt>
      <trkpt lat="43.59732" lon="3.35196">
        <ele>376.49</ele>
        <time>2014-10-05T08:38:25Z</time>
      </trkpt>
      <trkpt lat="43.59747" lon="3.35201">
        <ele>376.97</ele>
        <time>2014-10-05T08:38:35Z</time>
      </trkpt>
      <trkpt lat="43.59781" lon="3.35221">
        <ele>377.94</ele>
        <time>2014-10-05T08:38:52Z</time>
      </trkpt>
      <trkpt lat="43.59791" lon="3.35269">
        <ele>381.78</ele>
        <time>2014-10-05T08:39:09Z</time>
      </trkpt>
      <trkpt lat="43.59806" lon="3.35314">
        <ele>384.18</ele>
        <time>2014-10-05T08:39:25Z</time>
      </trkpt>
      <trkpt lat="43.59832" lon="3.35341">
        <ele>387.07</ele>
        <time>2014-10-05T08:39:40Z</time>
      </trkpt>
      <trkpt lat="43.59872" lon="3.35354">
        <ele>388.99</ele>
        <time>2014-10-05T08:39:59Z</time>
      </trkpt>
      <trkpt lat="43.59895" lon="3.3537">
        <ele>389.95</ele>
        <time>2014-10-05T08:40:11Z</time>
      </trkpt>
      <trkpt lat="43.59914" lon="3.35404">
        <ele>392.36</ele>
        <time>2014-10-05T08:40:25Z</time>
      </trkpt>
      <trkpt lat="43.59923" lon="3.35439">
        <ele>396.68</ele>
        <time>2014-10-05T08:40:37Z</time>
      </trkpt>
      <trkpt lat="43.59954" lon="3.35497">
        <ele>399.57</ele>
        <time>2014-10-05T08:40:57Z</time>
      </trkpt>
      <trkpt lat="43.59983" lon="3.35523">
        <ele>402.45</ele>
        <time>2014-10-05T08:41:11Z</time>
      </trkpt>
      <trkpt lat="43.60001" lon="3.3555">
        <ele>402.93</ele>
        <time>2014-10-05T08:41:22Z</time>
      </trkpt>
      <trkpt lat="43.59989" lon="3.35544">
        <ele>403.89</ele>
        <time>2014-10-05T08:41:31Z</time>
      </trkpt>
      <trkpt lat="43.59966" lon="3.35525">
        <ele>401.97</ele>
        <time>2014-10-05T08:41:40Z</time>
      </trkpt>
      <trkpt lat="43.59928" lon="3.35498">
        <ele>402.93</ele>
        <time>2014-10-05T08:41:56Z</time>
      </trkpt>
      <trkpt lat="43.59894" lon="3.35469">
        <ele>405.81</ele>
        <time>2014-10-05T08:42:12Z</time>
      </trkpt>
      <trkpt lat="43.59859" lon="3.35446">
        <ele>408.7</ele>
        <time>2014-10-05T08:42:28Z</time>
      </trkpt>
      <trkpt lat="43.59838" lon="3.35432">
        <ele>410.62</ele>
        <time>2014-10-05T08:42:37Z</time>
      </trkpt>
      <trkpt lat="43.5983" lon="3.35444">
        <ele>412.06</ele>
        <time>2014-10-05T08:42:45Z</time>
      </trkpt>
      <trkpt lat="43.59859" lon="3.35475">
        <ele>413.5</ele>
        <time>2014-10-05T08:43:00Z</time>
      </trkpt>
      <trkpt lat="43.59892" lon="3.35514">
        <ele>413.98</ele>
        <time>2014-10-05T08:43:18Z</time>
      </trkpt>
      <trkpt lat="43.59913" lon="3.35551">
        <ele>417.35</ele>
        <time>2014-10-05T08:43:33Z</time>
      </trkpt>
      <trkpt lat="43.59939" lon="3.35589">
        <ele>419.27</ele>
        <time>2014-10-05T08:43:49Z</time>
      </trkpt>
      <trkpt lat="43.59954" lon="3.35634">
        <ele>423.6</ele>
        <time>2014-10-05T08:44:04Z</time>
      </trkpt>
      <trkpt lat="43.59956" lon="3.3564">
        <ele>424.56</ele>
        <time>2014-10-05T08:44:06Z</time>
      </trkpt>
      <trkpt lat="43.59947" lon="3.35643">
        <ele>426.48</ele>
        <time>2014-10-05T08:44:14Z</time>
      </trkpt>
      <trkpt lat="43.59948" lon="3.35638">
        <ele>426.48</ele>
        <time>2014-10-05T08:44:16Z</time>
      </trkpt>
      <trkpt lat="43.59931" lon="3.35604">
        <ele>426.96</ele>
        <time>2014-10-05T08:44:29Z</time>
      </trkpt>
      <trkpt lat="43.59907" lon="3.35587">
        <ele>428.89</ele>
        <time>2014-10-05T08:44:41Z</time>
      </trkpt>
      <trkpt lat="43.59876" lon="3.35568">
        <ele>432.73</ele>
        <time>2014-10-05T08:44:56Z</time>
      </trkpt>
      <trkpt lat="43.59842" lon="3.35554">
        <ele>436.1</ele>
        <time>2014-10-05T08:45:12Z</time>
      </trkpt>
      <trkpt lat="43.59806" lon="3.35532">
        <ele>440.9</ele>
        <time>2014-10-05T08:45:29Z</time>
      </trkpt>
      <trkpt lat="43.59788" lon="3.35515">
        <ele>442.34</ele>
        <time>2014-10-05T08:45:38Z</time>
      </trkpt>
      <trkpt lat="43.59782" lon="3.35525">
        <ele>443.31</ele>
        <time>2014-10-05T08:45:45Z</time>
      </trkpt>
      <trkpt lat="43.59803" lon="3.35551">
        <ele>446.19</ele>
        <time>2014-10-05T08:45:59Z</time>
      </trkpt>
      <trkpt lat="43.59827" lon="3.35581">
        <ele>448.11</ele>
        <time>2014-10-05T08:46:15Z</time>
      </trkpt>
      <trkpt lat="43.5985" lon="3.35615">
        <ele>451</ele>
        <time>2014-10-05T08:46:31Z</time>
      </trkpt>
      <trkpt lat="43.5987" lon="3.35641">
        <ele>453.4</ele>
        <time>2014-10-05T08:46:45Z</time>
      </trkpt>
      <trkpt lat="43.59872" lon="3.35677">
        <ele>454.36</ele>
        <time>2014-10-05T08:46:58Z</time>
      </trkpt>
      <trkpt lat="43.59865" lon="3.35697">
        <ele>456.76</ele>
        <time>2014-10-05T08:47:06Z</time>
      </trkpt>
      <trkpt lat="43.59858" lon="3.35694">
        <ele>458.69</ele>
        <time>2014-10-05T08:47:12Z</time>
      </trkpt>
      <trkpt lat="43.59845" lon="3.35654">
        <ele>461.57</ele>
        <time>2014-10-05T08:47:27Z</time>
      </trkpt>
      <trkpt lat="43.59814" lon="3.35632">
        <ele>464.93</ele>
        <time>2014-10-05T08:47:44Z</time>
      </trkpt>
      <trkpt lat="43.59791" lon="3.35618">
        <ele>467.82</ele>
        <time>2014-10-05T08:47:56Z</time>
      </trkpt>
      <trkpt lat="43.5979" lon="3.35634">
        <ele>470.7</ele>
        <time>2014-10-05T08:48:05Z</time>
      </trkpt>
      <trkpt lat="43.59808" lon="3.35662">
        <ele>473.59</ele>
        <time>2014-10-05T08:48:20Z</time>
      </trkpt>
      <trkpt lat="43.59816" lon="3.35678">
        <ele>475.03</ele>
        <time>2014-10-05T08:48:29Z</time>
      </trkpt>
      <trkpt lat="43.59813" lon="3.35685">
        <ele>476.95</ele>
        <time>2014-10-05T08:48:34Z</time>
      </trkpt>
      <trkpt lat="43.59809" lon="3.35684">
        <ele>477.43</ele>
        <time>2014-10-05T08:48:37Z</time>
      </trkpt>
      <trkpt lat="43.59787" lon="3.35668">
        <ele>478.87</ele>
        <time>2014-10-05T08:48:54Z</time>
      </trkpt>
      <trkpt lat="43.5978" lon="3.35664">
        <ele>479.35</ele>
        <time>2014-10-05T08:48:59Z</time>
      </trkpt>
      <trkpt lat="43.59772" lon="3.35654">
        <ele>480.32</ele>
        <time>2014-10-05T08:49:07Z</time>
      </trkpt>
      <trkpt lat="43.59771" lon="3.35651">
        <ele>481.28</ele>
        <time>2014-10-05T08:49:20Z</time>
      </trkpt>
      <trkpt lat="43.5977" lon="3.3565">
        <ele>481.28</ele>
        <time>2014-10-05T08:49:40Z</time>
      </trkpt>
      <trkpt lat="43.5977" lon="3.35651">
        <ele>481.76</ele>
        <time>2014-10-05T08:49:58Z</time>
      </trkpt>
      <trkpt lat="43.5977" lon="3.35652">
        <ele>481.76</ele>
        <time>2014-10-05T08:50:20Z</time>
      </trkpt>
      <trkpt lat="43.5977" lon="3.35652">
        <ele>482.24</ele>
        <time>2014-10-05T08:51:01Z</time>
      </trkpt>
      <trkpt lat="43.59769" lon="3.35653">
        <ele>480.32</ele>
        <time>2014-10-05T08:51:49Z</time>
      </trkpt>
      <trkpt lat="43.5977" lon="3.35652">
        <ele>479.84</ele>
        <time>2014-10-05T08:52:21Z</time>
      </trkpt>
      <trkpt lat="43.59769" lon="3.35652">
        <ele>479.84</ele>
        <time>2014-10-05T08:52:53Z</time>
      </trkpt>
      <trkpt lat="43.5977" lon="3.35653">
        <ele>480.32</ele>
        <time>2014-10-05T08:53:28Z</time>
      </trkpt>
      <trkpt lat="43.5977" lon="3.35653">
        <ele>479.84</ele>
        <time>2014-10-05T08:54:08Z</time>
      </trkpt>
      <trkpt lat="43.59769" lon="3.35652">
        <ele>479.84</ele>
        <time>2014-10-05T08:54:23Z</time>
      </trkpt>
      <trkpt lat="43.59769" lon="3.35652">
        <ele>481.76</ele>
        <time>2014-10-05T08:54:43Z</time>
      </trkpt>
      <trkpt lat="43.5977" lon="3.35651">
        <ele>482.24</ele>
        <time>2014-10-05T08:55:07Z</time>
      </trkpt>
      <trkpt lat="43.59775" lon="3.35655">
        <ele>482.24</ele>
        <time>2014-10-05T08:55:13Z</time>
      </trkpt>
      <trkpt lat="43.59778" lon="3.35661">
        <ele>481.76</ele>
        <time>2014-10-05T08:55:16Z</time>
      </trkpt>
      <trkpt lat="43.5979" lon="3.3567">
        <ele>480.32</ele>
        <time>2014-10-05T08:55:21Z</time>
      </trkpt>
      <trkpt lat="43.59812" lon="3.35685">
        <ele>478.87</ele>
        <time>2014-10-05T08:55:31Z</time>
      </trkpt>
      <trkpt lat="43.59814" lon="3.35675">
        <ele>477.43</ele>
        <time>2014-10-05T08:55:36Z</time>
      </trkpt>
      <trkpt lat="43.598" lon="3.35649">
        <ele>474.55</ele>
        <time>2014-10-05T08:55:41Z</time>
      </trkpt>
      <trkpt lat="43.59787" lon="3.35631">
        <ele>473.11</ele>
        <time>2014-10-05T08:55:45Z</time>
      </trkpt>
      <trkpt lat="43.59796" lon="3.35621">
        <ele>470.7</ele>
        <time>2014-10-05T08:55:51Z</time>
      </trkpt>
      <trkpt lat="43.59838" lon="3.35649">
        <ele>466.86</ele>
        <time>2014-10-05T08:55:59Z</time>
      </trkpt>
      <trkpt lat="43.59856" lon="3.35696">
        <ele>462.53</ele>
        <time>2014-10-05T08:56:07Z</time>
      </trkpt>
      <trkpt lat="43.59868" lon="3.35696">
        <ele>460.61</ele>
        <time>2014-10-05T08:56:13Z</time>
      </trkpt>
      <trkpt lat="43.59872" lon="3.35682">
        <ele>459.17</ele>
        <time>2014-10-05T08:56:16Z</time>
      </trkpt>
      <trkpt lat="43.59866" lon="3.35634">
        <ele>457.24</ele>
        <time>2014-10-05T08:56:27Z</time>
      </trkpt>
      <trkpt lat="43.59851" lon="3.35615">
        <ele>456.28</ele>
        <time>2014-10-05T08:56:39Z</time>
      </trkpt>
      <trkpt lat="43.59851" lon="3.35615">
        <ele>455.8</ele>
        <time>2014-10-05T08:57:07Z</time>
      </trkpt>
      <trkpt lat="43.59851" lon="3.35615">
        <ele>454.84</ele>
        <time>2014-10-05T08:57:36Z</time>
      </trkpt>
      <trkpt lat="43.59847" lon="3.35606">
        <ele>454.84</ele>
        <time>2014-10-05T08:58:03Z</time>
      </trkpt>
      <trkpt lat="43.59837" lon="3.35592">
        <ele>453.88</ele>
        <time>2014-10-05T08:58:07Z</time>
      </trkpt>
      <trkpt lat="43.59831" lon="3.35582">
        <ele>453.4</ele>
        <time>2014-10-05T08:58:09Z</time>
      </trkpt>
      <trkpt lat="43.5982" lon="3.3557">
        <ele>452.44</ele>
        <time>2014-10-05T08:58:12Z</time>
      </trkpt>
      <trkpt lat="43.59799" lon="3.35545">
        <ele>450.52</ele>
        <time>2014-10-05T08:58:17Z</time>
      </trkpt>
      <trkpt lat="43.59782" lon="3.35525">
        <ele>449.07</ele>
        <time>2014-10-05T08:58:21Z</time>
      </trkpt>
      <trkpt lat="43.59789" lon="3.35516">
        <ele>446.67</ele>
        <time>2014-10-05T08:58:27Z</time>
      </trkpt>
      <trkpt lat="43.59799" lon="3.35527">
        <ele>445.71</ele>
        <time>2014-10-05T08:58:31Z</time>
      </trkpt>
      <trkpt lat="43.5983" lon="3.35546">
        <ele>443.79</ele>
        <time>2014-10-05T08:58:38Z</time>
      </trkpt>
      <trkpt lat="43.59862" lon="3.35558">
        <ele>441.86</ele>
        <time>2014-10-05T08:58:43Z</time>
      </trkpt>
      <trkpt lat="43.59882" lon="3.35569">
        <ele>440.42</ele>
        <time>2014-10-05T08:58:46Z</time>
      </trkpt>
      <trkpt lat="43.59936" lon="3.35609">
        <ele>435.61</ele>
        <time>2014-10-05T08:58:54Z</time>
      </trkpt>
      <trkpt lat="43.59951" lon="3.35655">
        <ele>431.29</ele>
        <time>2014-10-05T08:59:02Z</time>
      </trkpt>
      <trkpt lat="43.59957" lon="3.35636">
        <ele>428.89</ele>
        <time>2014-10-05T08:59:08Z</time>
      </trkpt>
      <trkpt lat="43.59956" lon="3.35631">
        <ele>428.89</ele>
        <time>2014-10-05T08:59:09Z</time>
      </trkpt>
      <trkpt lat="43.59952" lon="3.35611">
        <ele>427.44</ele>
        <time>2014-10-05T08:59:12Z</time>
      </trkpt>
      <trkpt lat="43.59936" lon="3.35584">
        <ele>426</ele>
        <time>2014-10-05T08:59:17Z</time>
      </trkpt>
      <trkpt lat="43.59907" lon="3.35535">
        <ele>423.6</ele>
        <time>2014-10-05T08:59:24Z</time>
      </trkpt>
      <trkpt lat="43.59879" lon="3.35495">
        <ele>420.23</ele>
        <time>2014-10-05T08:59:29Z</time>
      </trkpt>
      <trkpt lat="43.59844" lon="3.35454">
        <ele>416.87</ele>
        <time>2014-10-05T08:59:35Z</time>
      </trkpt>
      <trkpt lat="43.59831" lon="3.35432">
        <ele>415.43</ele>
        <time>2014-10-05T08:59:42Z</time>
      </trkpt>
      <trkpt lat="43.59842" lon="3.35436">
        <ele>414.47</ele>
        <time>2014-10-05T08:59:45Z</time>
      </trkpt>
      <trkpt lat="43.59887" lon="3.35463">
        <ele>413.02</ele>
        <time>2014-10-05T08:59:54Z</time>
      </trkpt>
      <trkpt lat="43.59923" lon="3.35494">
        <ele>409.66</ele>
        <time>2014-10-05T09:00:00Z</time>
      </trkpt>
      <trkpt lat="43.59936" lon="3.35508">
        <ele>408.22</ele>
        <time>2014-10-05T09:00:02Z</time>
      </trkpt>
      <trkpt lat="43.59974" lon="3.35532">
        <ele>405.33</ele>
        <time>2014-10-05T09:00:07Z</time>
      </trkpt>
      <trkpt lat="43.6" lon="3.35557">
        <ele>402.93</ele>
        <time>2014-10-05T09:00:13Z</time>
      </trkpt>
      <trkpt lat="43.59997" lon="3.35537">
        <ele>400.53</ele>
        <time>2014-10-05T09:00:18Z</time>
      </trkpt>
      <trkpt lat="43.59988" lon="3.35528">
        <ele>399.57</ele>
        <time>2014-10-05T09:00:20Z</time>
      </trkpt>
      <trkpt lat="43.59965" lon="3.3551">
        <ele>398.6</ele>
        <time>2014-10-05T09:00:24Z</time>
      </trkpt>
      <trkpt lat="43.59941" lon="3.35471">
        <ele>396.68</ele>
        <time>2014-10-05T09:00:29Z</time>
      </trkpt>
      <trkpt lat="43.59918" lon="3.35422">
        <ele>393.8</ele>
        <time>2014-10-05T09:00:34Z</time>
      </trkpt>
      <trkpt lat="43.59906" lon="3.35389">
        <ele>391.87</ele>
        <time>2014-10-05T09:00:37Z</time>
      </trkpt>
      <trkpt lat="43.59859" lon="3.35347">
        <ele>388.51</ele>
        <time>2014-10-05T09:00:44Z</time>
      </trkpt>
      <trkpt lat="43.59824" lon="3.35337">
        <ele>387.07</ele>
        <time>2014-10-05T09:00:48Z</time>
      </trkpt>
      <trkpt lat="43.59802" lon="3.35308">
        <ele>385.15</ele>
        <time>2014-10-05T09:00:52Z</time>
      </trkpt>
      <trkpt lat="43.59791" lon="3.35274">
        <ele>383.22</ele>
        <time>2014-10-05T09:00:55Z</time>
      </trkpt>
      <trkpt lat="43.59786" lon="3.3524">
        <ele>381.3</ele>
        <time>2014-10-05T09:00:58Z</time>
      </trkpt>
      <trkpt lat="43.59746" lon="3.35202">
        <ele>377.94</ele>
        <time>2014-10-05T09:01:05Z</time>
      </trkpt>
      <trkpt lat="43.59725" lon="3.35185">
        <ele>376.49</ele>
        <time>2014-10-05T09:01:10Z</time>
      </trkpt>
      <trkpt lat="43.59714" lon="3.35148">
        <ele>372.17</ele>
        <time>2014-10-05T09:01:15Z</time>
      </trkpt>
      <trkpt lat="43.59705" lon="3.35114">
        <ele>369.28</ele>
        <time>2014-10-05T09:01:19Z</time>
      </trkpt>
      <trkpt lat="43.59701" lon="3.35085">
        <ele>368.32</ele>
        <time>2014-10-05T09:01:25Z</time>
      </trkpt>
      <trkpt lat="43.59699" lon="3.35083">
        <ele>368.8</ele>
        <time>2014-10-05T09:01:35Z</time>
      </trkpt>
      <trkpt lat="43.59698" lon="3.35083">
        <ele>369.76</ele>
        <time>2014-10-05T09:01:46Z</time>
      </trkpt>
      <trkpt lat="43.59702" lon="3.35048">
        <ele>366.88</ele>
        <time>2014-10-05T09:01:55Z</time>
      </trkpt>
      <trkpt lat="43.597" lon="3.35021">
        <ele>364.96</ele>
        <time>2014-10-05T09:01:59Z</time>
      </trkpt>
      <trkpt lat="43.59696" lon="3.34994">
        <ele>363.52</ele>
        <time>2014-10-05T09:02:08Z</time>
      </trkpt>
      <trkpt lat="43.59696" lon="3.34994">
        <ele>363.04</ele>
        <time>2014-10-05T09:02:28Z</time>
      </trkpt>
      <trkpt lat="43.59694" lon="3.34992">
        <ele>362.07</ele>
        <time>2014-10-05T09:02:46Z</time>
      </trkpt>
      <trkpt lat="43.59691" lon="3.34988">
        <ele>362.07</ele>
        <time>2014-10-05T09:02:58Z</time>
      </trkpt>
      <trkpt lat="43.59689" lon="3.34988">
        <ele>361.59</ele>
        <time>2014-10-05T09:03:17Z</time>
      </trkpt>
      <trkpt lat="43.59685" lon="3.34988">
        <ele>361.11</ele>
        <time>2014-10-05T09:03:31Z</time>
      </trkpt>
      <trkpt lat="43.59683" lon="3.34989">
        <ele>360.15</ele>
        <time>2014-10-05T09:03:38Z</time>
      </trkpt>
      <trkpt lat="43.59677" lon="3.34991">
        <ele>360.15</ele>
        <time>2014-10-05T09:03:49Z</time>
      </trkpt>
      <trkpt lat="43.59677" lon="3.3499">
        <ele>360.15</ele>
        <time>2014-10-05T09:03:53Z</time>
      </trkpt>
      <trkpt lat="43.5967" lon="3.34984">
        <ele>358.71</ele>
        <time>2014-10-05T09:04:03Z</time>
      </trkpt>
      <trkpt lat="43.59668" lon="3.34981">
        <ele>357.75</ele>
        <time>2014-10-05T09:04:16Z</time>
      </trkpt>
      <trkpt lat="43.59659" lon="3.34982">
        <ele>353.9</ele>
        <time>2014-10-05T09:04:31Z</time>
      </trkpt>
      <trkpt lat="43.59653" lon="3.3499">
        <ele>349.1</ele>
        <time>2014-10-05T09:04:45Z</time>
      </trkpt>
      <trkpt lat="43.59647" lon="3.3502">
        <ele>343.81</ele>
        <time>2014-10-05T09:04:56Z</time>
      </trkpt>
      <trkpt lat="43.59646" lon="3.35023">
        <ele>343.33</ele>
        <time>2014-10-05T09:04:57Z</time>
      </trkpt>
      <trkpt lat="43.59639" lon="3.35037">
        <ele>339.48</ele>
        <time>2014-10-05T09:05:03Z</time>
      </trkpt>
      <trkpt lat="43.5964" lon="3.35042">
        <ele>339</ele>
        <time>2014-10-05T09:05:05Z</time>
      </trkpt>
      <trkpt lat="43.59635" lon="3.35062">
        <ele>334.68</ele>
        <time>2014-10-05T09:05:12Z</time>
      </trkpt>
      <trkpt lat="43.59632" lon="3.3508">
        <ele>332.27</ele>
        <time>2014-10-05T09:05:17Z</time>
      </trkpt>
      <trkpt lat="43.59628" lon="3.3509">
        <ele>330.83</ele>
        <time>2014-10-05T09:05:21Z</time>
      </trkpt>
      <trkpt lat="43.59622" lon="3.35101">
        <ele>329.39</ele>
        <time>2014-10-05T09:05:29Z</time>
      </trkpt>
      <trkpt lat="43.59618" lon="3.35104">
        <ele>326.5</ele>
        <time>2014-10-05T09:05:44Z</time>
      </trkpt>
      <trkpt lat="43.59616" lon="3.35101">
        <ele>324.58</ele>
        <time>2014-10-05T09:05:55Z</time>
      </trkpt>
      <trkpt lat="43.59615" lon="3.351">
        <ele>324.1</ele>
        <time>2014-10-05T09:06:11Z</time>
      </trkpt>
      <trkpt lat="43.59615" lon="3.351">
        <ele>324.1</ele>
        <time>2014-10-05T09:06:29Z</time>
      </trkpt>
      <trkpt lat="43.59619" lon="3.35089">
        <ele>322.18</ele>
        <time>2014-10-05T09:06:41Z</time>
      </trkpt>
      <trkpt lat="43.59619" lon="3.35084">
        <ele>322.18</ele>
        <time>2014-10-05T09:06:47Z</time>
      </trkpt>
      <trkpt lat="43.5962" lon="3.35076">
        <ele>320.74</ele>
        <time>2014-10-05T09:06:55Z</time>
      </trkpt>
      <trkpt lat="43.59614" lon="3.35052">
        <ele>316.89</ele>
        <time>2014-10-05T09:07:05Z</time>
      </trkpt>
      <trkpt lat="43.5961" lon="3.35041">
        <ele>314.49</ele>
        <time>2014-10-05T09:07:15Z</time>
      </trkpt>
      <trkpt lat="43.59609" lon="3.35042">
        <ele>313.53</ele>
        <time>2014-10-05T09:07:24Z</time>
      </trkpt>
      <trkpt lat="43.59604" lon="3.35074">
        <ele>308.24</ele>
        <time>2014-10-05T09:07:35Z</time>
      </trkpt>
      <trkpt lat="43.59603" lon="3.35082">
        <ele>305.84</ele>
        <time>2014-10-05T09:07:45Z</time>
      </trkpt>
      <trkpt lat="43.596" lon="3.35095">
        <ele>301.51</ele>
        <time>2014-10-05T09:07:59Z</time>
      </trkpt>
      <trkpt lat="43.59596" lon="3.35107">
        <ele>299.59</ele>
        <time>2014-10-05T09:08:11Z</time>
      </trkpt>
      <trkpt lat="43.59592" lon="3.35126">
        <ele>295.26</ele>
        <time>2014-10-05T09:08:17Z</time>
      </trkpt>
      <trkpt lat="43.59589" lon="3.35172">
        <ele>287.09</ele>
        <time>2014-10-05T09:08:30Z</time>
      </trkpt>
      <trkpt lat="43.59591" lon="3.35189">
        <ele>284.69</ele>
        <time>2014-10-05T09:08:35Z</time>
      </trkpt>
      <trkpt lat="43.59585" lon="3.35204">
        <ele>283.25</ele>
        <time>2014-10-05T09:08:40Z</time>
      </trkpt>
      <trkpt lat="43.59584" lon="3.3521">
        <ele>282.77</ele>
        <time>2014-10-05T09:08:50Z</time>
      </trkpt>
      <trkpt lat="43.59581" lon="3.35213">
        <ele>280.84</ele>
        <time>2014-10-05T09:09:01Z</time>
      </trkpt>
      <trkpt lat="43.5958" lon="3.35217">
        <ele>279.88</ele>
        <time>2014-10-05T09:09:11Z</time>
      </trkpt>
      <trkpt lat="43.59577" lon="3.35222">
        <ele>278.44</ele>
        <time>2014-10-05T09:09:23Z</time>
      </trkpt>
      <trkpt lat="43.59567" lon="3.35248">
        <ele>272.67</ele>
        <time>2014-10-05T09:09:33Z</time>
      </trkpt>
      <trkpt lat="43.59565" lon="3.3525">
        <ele>271.71</ele>
        <time>2014-10-05T09:09:40Z</time>
      </trkpt>
      <trkpt lat="43.59559" lon="3.35262">
        <ele>266.42</ele>
        <time>2014-10-05T09:09:53Z</time>
      </trkpt>
      <trkpt lat="43.59558" lon="3.35276">
        <ele>264.5</ele>
        <time>2014-10-05T09:09:58Z</time>
      </trkpt>
      <trkpt lat="43.59561" lon="3.35291">
        <ele>263.54</ele>
        <time>2014-10-05T09:10:01Z</time>
      </trkpt>
      <trkpt lat="43.5954" lon="3.35304">
        <ele>259.21</ele>
        <time>2014-10-05T09:10:11Z</time>
      </trkpt>
      <trkpt lat="43.59534" lon="3.35303">
        <ele>256.81</ele>
        <time>2014-10-05T09:10:14Z</time>
      </trkpt>
      <trkpt lat="43.59508" lon="3.35329">
        <ele>251.52</ele>
        <time>2014-10-05T09:10:25Z</time>
      </trkpt>
      <trkpt lat="43.59498" lon="3.35343">
        <ele>250.08</ele>
        <time>2014-10-05T09:10:30Z</time>
      </trkpt>
      <trkpt lat="43.59489" lon="3.35369">
        <ele>246.23</ele>
        <time>2014-10-05T09:10:36Z</time>
      </trkpt>
      <trkpt lat="43.59469" lon="3.35408">
        <ele>239.02</ele>
        <time>2014-10-05T09:10:47Z</time>
      </trkpt>
      <trkpt lat="43.59468" lon="3.35413">
        <ele>238.06</ele>
        <time>2014-10-05T09:10:58Z</time>
      </trkpt>
      <trkpt lat="43.59467" lon="3.35417">
        <ele>237.58</ele>
        <time>2014-10-05T09:11:18Z</time>
      </trkpt>
      <trkpt lat="43.59466" lon="3.35427">
        <ele>236.14</ele>
        <time>2014-10-05T09:11:21Z</time>
      </trkpt>
      <trkpt lat="43.5946" lon="3.35455">
        <ele>232.78</ele>
        <time>2014-10-05T09:11:28Z</time>
      </trkpt>
      <trkpt lat="43.59449" lon="3.3551">
        <ele>227.49</ele>
        <time>2014-10-05T09:11:40Z</time>
      </trkpt>
      <trkpt lat="43.59448" lon="3.35514">
        <ele>227.49</ele>
        <time>2014-10-05T09:11:41Z</time>
      </trkpt>
      <trkpt lat="43.59437" lon="3.35538">
        <ele>223.64</ele>
        <time>2014-10-05T09:11:51Z</time>
      </trkpt>
      <trkpt lat="43.59423" lon="3.35559">
        <ele>216.91</ele>
        <time>2014-10-05T09:12:02Z</time>
      </trkpt>
      <trkpt lat="43.59408" lon="3.3559">
        <ele>211.15</ele>
        <time>2014-10-05T09:12:12Z</time>
      </trkpt>
      <trkpt lat="43.59405" lon="3.35603">
        <ele>210.19</ele>
        <time>2014-10-05T09:12:17Z</time>
      </trkpt>
      <trkpt lat="43.594" lon="3.35621">
        <ele>208.74</ele>
        <time>2014-10-05T09:12:26Z</time>
      </trkpt>
      <trkpt lat="43.594" lon="3.35621">
        <ele>207.78</ele>
        <time>2014-10-05T09:13:01Z</time>
      </trkpt>
      <trkpt lat="43.59394" lon="3.3564">
        <ele>206.34</ele>
        <time>2014-10-05T09:13:11Z</time>
      </trkpt>
      <trkpt lat="43.59383" lon="3.35668">
        <ele>201.05</ele>
        <time>2014-10-05T09:13:19Z</time>
      </trkpt>
      <trkpt lat="43.59379" lon="3.35696">
        <ele>196.73</ele>
        <time>2014-10-05T09:13:29Z</time>
      </trkpt>
      <trkpt lat="43.59375" lon="3.35724">
        <ele>194.32</ele>
        <time>2014-10-05T09:13:35Z</time>
      </trkpt>
      <trkpt lat="43.59371" lon="3.35776">
        <ele>193.84</ele>
        <time>2014-10-05T09:13:47Z</time>
      </trkpt>
      <trkpt lat="43.59361" lon="3.35805">
        <ele>190.96</ele>
        <time>2014-10-05T09:13:55Z</time>
      </trkpt>
      <trkpt lat="43.59352" lon="3.35839">
        <ele>186.63</ele>
        <time>2014-10-05T09:14:06Z</time>
      </trkpt>
      <trkpt lat="43.59332" lon="3.35872">
        <ele>181.35</ele>
        <time>2014-10-05T09:14:17Z</time>
      </trkpt>
      <trkpt lat="43.59325" lon="3.35879">
        <ele>179.9</ele>
        <time>2014-10-05T09:14:20Z</time>
      </trkpt>
      <trkpt lat="43.5932" lon="3.359">
        <ele>176.54</ele>
        <time>2014-10-05T09:14:29Z</time>
      </trkpt>
      <trkpt lat="43.5932" lon="3.35901">
        <ele>176.54</ele>
        <time>2014-10-05T09:14:44Z</time>
      </trkpt>
      <trkpt lat="43.59321" lon="3.35901">
        <ele>176.54</ele>
        <time>2014-10-05T09:15:02Z</time>
      </trkpt>
      <trkpt lat="43.59321" lon="3.359">
        <ele>176.54</ele>
        <time>2014-10-05T09:15:27Z</time>
      </trkpt>
      <trkpt lat="43.5932" lon="3.35899">
        <ele>177.5</ele>
        <time>2014-10-05T09:15:55Z</time>
      </trkpt>
      <trkpt lat="43.59319" lon="3.35899">
        <ele>176.54</ele>
        <time>2014-10-05T09:16:24Z</time>
      </trkpt>
      <trkpt lat="43.59319" lon="3.359">
        <ele>176.54</ele>
        <time>2014-10-05T09:16:44Z</time>
      </trkpt>
      <trkpt lat="43.59304" lon="3.35909">
        <ele>175.58</ele>
        <time>2014-10-05T09:16:52Z</time>
      </trkpt>
      <trkpt lat="43.5928" lon="3.35908">
        <ele>173.17</ele>
        <time>2014-10-05T09:16:57Z</time>
      </trkpt>
      <trkpt lat="43.59267" lon="3.35902">
        <ele>172.21</ele>
        <time>2014-10-05T09:16:59Z</time>
      </trkpt>
      <trkpt lat="43.59188" lon="3.35893">
        <ele>168.37</ele>
        <time>2014-10-05T09:17:09Z</time>
      </trkpt>
      <trkpt lat="43.59111" lon="3.35863">
        <ele>160.2</ele>
        <time>2014-10-05T09:17:17Z</time>
      </trkpt>
      <trkpt lat="43.59093" lon="3.35861">
        <ele>158.27</ele>
        <time>2014-10-05T09:17:19Z</time>
      </trkpt>
      <trkpt lat="43.59067" lon="3.35864">
        <ele>155.87</ele>
        <time>2014-10-05T09:17:22Z</time>
      </trkpt>
      <trkpt lat="43.5904" lon="3.3586">
        <ele>153.47</ele>
        <time>2014-10-05T09:17:25Z</time>
      </trkpt>
      <trkpt lat="43.59006" lon="3.3586">
        <ele>151.54</ele>
        <time>2014-10-05T09:17:29Z</time>
      </trkpt>
      <trkpt lat="43.58978" lon="3.35874">
        <ele>152.51</ele>
        <time>2014-10-05T09:17:33Z</time>
      </trkpt>
      <trkpt lat="43.58957" lon="3.35893">
        <ele>153.95</ele>
        <time>2014-10-05T09:17:37Z</time>
      </trkpt>
      <trkpt lat="43.58935" lon="3.35911">
        <ele>154.91</ele>
        <time>2014-10-05T09:17:42Z</time>
      </trkpt>
      <trkpt lat="43.58911" lon="3.35931">
        <ele>156.35</ele>
        <time>2014-10-05T09:17:48Z</time>
      </trkpt>
      <trkpt lat="43.58897" lon="3.3595">
        <ele>156.35</ele>
        <time>2014-10-05T09:17:52Z</time>
      </trkpt>
      <trkpt lat="43.58858" lon="3.35984">
        <ele>158.27</ele>
        <time>2014-10-05T09:18:01Z</time>
      </trkpt>
      <trkpt lat="43.58842" lon="3.3599">
        <ele>157.79</ele>
        <time>2014-10-05T09:18:05Z</time>
      </trkpt>
      <trkpt lat="43.58815" lon="3.35994">
        <ele>154.91</ele>
        <time>2014-10-05T09:18:10Z</time>
      </trkpt>
      <trkpt lat="43.58771" lon="3.36022">
        <ele>149.14</ele>
        <time>2014-10-05T09:18:16Z</time>
      </trkpt>
      <trkpt lat="43.58723" lon="3.36043">
        <ele>143.85</ele>
        <time>2014-10-05T09:18:21Z</time>
      </trkpt>
      <trkpt lat="43.5865" lon="3.36085">
        <ele>138.09</ele>
        <time>2014-10-05T09:18:28Z</time>
      </trkpt>
      <trkpt lat="43.58582" lon="3.36143">
        <ele>128.47</ele>
        <time>2014-10-05T09:18:37Z</time>
      </trkpt>
      <trkpt lat="43.5854" lon="3.36171">
        <ele>123.67</ele>
        <time>2014-10-05T09:18:42Z</time>
      </trkpt>
      <trkpt lat="43.58526" lon="3.3619">
        <ele>120.78</ele>
        <time>2014-10-05T09:18:46Z</time>
      </trkpt>
      <trkpt lat="43.58528" lon="3.36245">
        <ele>125.11</ele>
        <time>2014-10-05T09:18:58Z</time>
      </trkpt>
      <trkpt lat="43.58554" lon="3.3628">
        <ele>130.4</ele>
        <time>2014-10-05T09:19:11Z</time>
      </trkpt>
      <trkpt lat="43.58558" lon="3.36285">
        <ele>131.36</ele>
        <time>2014-10-05T09:19:14Z</time>
      </trkpt>
      <trkpt lat="43.58557" lon="3.36293">
        <ele>132.32</ele>
        <time>2014-10-05T09:19:21Z</time>
      </trkpt>
      <trkpt lat="43.58522" lon="3.36283">
        <ele>131.84</ele>
        <time>2014-10-05T09:19:35Z</time>
      </trkpt>
      <trkpt lat="43.58489" lon="3.36283">
        <ele>129.43</ele>
        <time>2014-10-05T09:19:43Z</time>
      </trkpt>
      <trkpt lat="43.58422" lon="3.36288">
        <ele>127.03</ele>
        <time>2014-10-05T09:19:55Z</time>
      </trkpt>
      <trkpt lat="43.58378" lon="3.36291">
        <ele>126.55</ele>
        <time>2014-10-05T09:20:03Z</time>
      </trkpt>
      <trkpt lat="43.58363" lon="3.36289">
        <ele>126.55</ele>
        <time>2014-10-05T09:20:06Z</time>
      </trkpt>
      <trkpt lat="43.58344" lon="3.36278">
        <ele>127.03</ele>
        <time>2014-10-05T09:20:10Z</time>
      </trkpt>
      <trkpt lat="43.58287" lon="3.36222">
        <ele>127.99</ele>
        <time>2014-10-05T09:20:23Z</time>
      </trkpt>
      <trkpt lat="43.58277" lon="3.36216">
        <ele>127.51</ele>
        <time>2014-10-05T09:20:25Z</time>
      </trkpt>
      <trkpt lat="43.58256" lon="3.36219">
        <ele>127.03</ele>
        <time>2014-10-05T09:20:29Z</time>
      </trkpt>
      <trkpt lat="43.58157" lon="3.36274">
        <ele>124.15</ele>
        <time>2014-10-05T09:20:47Z</time>
      </trkpt>
      <trkpt lat="43.58047" lon="3.36336">
        <ele>121.74</ele>
        <time>2014-10-05T09:21:06Z</time>
      </trkpt>
      <trkpt lat="43.57992" lon="3.36353">
        <ele>121.26</ele>
        <time>2014-10-05T09:21:15Z</time>
      </trkpt>
      <trkpt lat="43.57964" lon="3.36361">
        <ele>121.26</ele>
        <time>2014-10-05T09:21:20Z</time>
      </trkpt>
      <trkpt lat="43.57879" lon="3.36379">
        <ele>120.3</ele>
        <time>2014-10-05T09:21:36Z</time>
      </trkpt>
      <trkpt lat="43.57874" lon="3.36379">
        <ele>120.3</ele>
        <time>2014-10-05T09:21:37Z</time>
      </trkpt>
      <trkpt lat="43.5785" lon="3.36357">
        <ele>121.74</ele>
        <time>2014-10-05T09:21:45Z</time>
      </trkpt>
      <trkpt lat="43.57849" lon="3.36355">
        <ele>121.74</ele>
        <time>2014-10-05T09:21:46Z</time>
      </trkpt>
      <trkpt lat="43.57867" lon="3.3633">
        <ele>122.71</ele>
        <time>2014-10-05T09:21:57Z</time>
      </trkpt>
      <trkpt lat="43.57907" lon="3.36298">
        <ele>123.67</ele>
        <time>2014-10-05T09:22:16Z</time>
      </trkpt>
      <trkpt lat="43.57932" lon="3.36264">
        <ele>127.51</ele>
        <time>2014-10-05T09:22:31Z</time>
      </trkpt>
      <trkpt lat="43.57955" lon="3.36219">
        <ele>129.43</ele>
        <time>2014-10-05T09:22:50Z</time>
      </trkpt>
      <trkpt lat="43.57981" lon="3.36191">
        <ele>132.32</ele>
        <time>2014-10-05T09:23:06Z</time>
      </trkpt>
      <trkpt lat="43.58022" lon="3.36191">
        <ele>132.32</ele>
        <time>2014-10-05T09:23:24Z</time>
      </trkpt>
      <trkpt lat="43.58051" lon="3.36193">
        <ele>132.8</ele>
        <time>2014-10-05T09:23:38Z</time>
      </trkpt>
      <trkpt lat="43.58088" lon="3.36179">
        <ele>137.13</ele>
        <time>2014-10-05T09:23:56Z</time>
      </trkpt>
      <trkpt lat="43.58128" lon="3.36147">
        <ele>142.89</ele>
        <time>2014-10-05T09:24:18Z</time>
      </trkpt>
      <trkpt lat="43.58163" lon="3.36115">
        <ele>146.74</ele>
        <time>2014-10-05T09:24:38Z</time>
      </trkpt>
      <trkpt lat="43.58195" lon="3.36084">
        <ele>149.14</ele>
        <time>2014-10-05T09:24:56Z</time>
      </trkpt>
      <trkpt lat="43.58221" lon="3.3604">
        <ele>150.1</ele>
        <time>2014-10-05T09:25:15Z</time>
      </trkpt>
      <trkpt lat="43.58242" lon="3.35987">
        <ele>151.06</ele>
        <time>2014-10-05T09:25:36Z</time>
      </trkpt>
      <trkpt lat="43.58262" lon="3.35942">
        <ele>151.06</ele>
        <time>2014-10-05T09:25:54Z</time>
      </trkpt>
      <trkpt lat="43.58266" lon="3.35933">
        <ele>151.06</ele>
        <time>2014-10-05T09:25:58Z</time>
      </trkpt>
      <trkpt lat="43.5827" lon="3.35925">
        <ele>152.03</ele>
        <time>2014-10-05T09:26:02Z</time>
      </trkpt>
      <trkpt lat="43.58291" lon="3.3591">
        <ele>154.43</ele>
        <time>2014-10-05T09:26:15Z</time>
      </trkpt>
      <trkpt lat="43.58317" lon="3.35896">
        <ele>154.91</ele>
        <time>2014-10-05T09:26:30Z</time>
      </trkpt>
      <trkpt lat="43.5834" lon="3.35881">
        <ele>157.79</ele>
        <time>2014-10-05T09:26:42Z</time>
      </trkpt>
      <trkpt lat="43.58358" lon="3.35846">
        <ele>160.2</ele>
        <time>2014-10-05T09:26:58Z</time>
      </trkpt>
      <trkpt lat="43.58378" lon="3.35817">
        <ele>162.6</ele>
        <time>2014-10-05T09:27:13Z</time>
      </trkpt>
      <trkpt lat="43.58407" lon="3.35784">
        <ele>166.45</ele>
        <time>2014-10-05T09:27:32Z</time>
      </trkpt>
      <trkpt lat="43.58436" lon="3.35744">
        <ele>167.89</ele>
        <time>2014-10-05T09:27:51Z</time>
      </trkpt>
      <trkpt lat="43.58464" lon="3.35723">
        <ele>168.37</ele>
        <time>2014-10-05T09:28:07Z</time>
      </trkpt>
      <trkpt lat="43.58498" lon="3.35707">
        <ele>169.81</ele>
        <time>2014-10-05T09:28:24Z</time>
      </trkpt>
      <trkpt lat="43.58528" lon="3.35683">
        <ele>174.62</ele>
        <time>2014-10-05T09:28:40Z</time>
      </trkpt>
      <trkpt lat="43.58545" lon="3.35661">
        <ele>175.58</ele>
        <time>2014-10-05T09:28:52Z</time>
      </trkpt>
      <trkpt lat="43.5854" lon="3.35652">
        <ele>175.58</ele>
        <time>2014-10-05T09:29:00Z</time>
      </trkpt>
      <trkpt lat="43.58514" lon="3.35661">
        <ele>175.1</ele>
        <time>2014-10-05T09:29:15Z</time>
      </trkpt>
      <trkpt lat="43.58482" lon="3.3568">
        <ele>173.17</ele>
        <time>2014-10-05T09:29:31Z</time>
      </trkpt>
      <trkpt lat="43.58477" lon="3.35682">
        <ele>174.14</ele>
        <time>2014-10-05T09:29:43Z</time>
      </trkpt>
      <trkpt lat="43.58476" lon="3.35681">
        <ele>174.62</ele>
        <time>2014-10-05T09:30:09Z</time>
      </trkpt>
      <trkpt lat="43.58476" lon="3.3568">
        <ele>174.14</ele>
        <time>2014-10-05T09:30:45Z</time>
      </trkpt>
      <trkpt lat="43.58476" lon="3.3568">
        <ele>173.17</ele>
        <time>2014-10-05T09:31:14Z</time>
      </trkpt>
      <trkpt lat="43.58476" lon="3.3568">
        <ele>172.69</ele>
        <time>2014-10-05T09:31:35Z</time>
      </trkpt>
      <trkpt lat="43.58471" lon="3.35686">
        <ele>172.69</ele>
        <time>2014-10-05T09:31:40Z</time>
      </trkpt>
      <trkpt lat="43.58435" lon="3.35712">
        <ele>170.77</ele>
        <time>2014-10-05T09:31:55Z</time>
      </trkpt>
      <trkpt lat="43.58407" lon="3.35733">
        <ele>173.66</ele>
        <time>2014-10-05T09:32:08Z</time>
      </trkpt>
      <trkpt lat="43.58383" lon="3.35752">
        <ele>177.5</ele>
        <time>2014-10-05T09:32:20Z</time>
      </trkpt>
      <trkpt lat="43.58379" lon="3.35756">
        <ele>177.98</ele>
        <time>2014-10-05T09:32:22Z</time>
      </trkpt>
      <trkpt lat="43.58353" lon="3.35784">
        <ele>180.38</ele>
        <time>2014-10-05T09:32:35Z</time>
      </trkpt>
      <trkpt lat="43.58327" lon="3.35813">
        <ele>181.35</ele>
        <time>2014-10-05T09:32:47Z</time>
      </trkpt>
      <trkpt lat="43.58284" lon="3.35839">
        <ele>177.98</ele>
        <time>2014-10-05T09:33:01Z</time>
      </trkpt>
      <trkpt lat="43.58236" lon="3.35868">
        <ele>176.54</ele>
        <time>2014-10-05T09:33:15Z</time>
      </trkpt>
      <trkpt lat="43.5822" lon="3.3588">
        <ele>177.02</ele>
        <time>2014-10-05T09:33:22Z</time>
      </trkpt>
      <trkpt lat="43.58209" lon="3.35869">
        <ele>177.5</ele>
        <time>2014-10-05T09:33:30Z</time>
      </trkpt>
      <trkpt lat="43.58219" lon="3.3584">
        <ele>179.9</ele>
        <time>2014-10-05T09:33:46Z</time>
      </trkpt>
      <trkpt lat="43.5823" lon="3.35809">
        <ele>184.71</ele>
        <time>2014-10-05T09:34:03Z</time>
      </trkpt>
      <trkpt lat="43.58241" lon="3.35777">
        <ele>190.48</ele>
        <time>2014-10-05T09:34:20Z</time>
      </trkpt>
      <trkpt lat="43.58251" lon="3.35749">
        <ele>194.32</ele>
        <time>2014-10-05T09:34:37Z</time>
      </trkpt>
      <trkpt lat="43.5826" lon="3.35723">
        <ele>198.17</ele>
        <time>2014-10-05T09:34:52Z</time>
      </trkpt>
      <trkpt lat="43.58269" lon="3.35694">
        <ele>201.05</ele>
        <time>2014-10-05T09:35:09Z</time>
      </trkpt>
      <trkpt lat="43.58278" lon="3.35657">
        <ele>205.86</ele>
        <time>2014-10-05T09:35:27Z</time>
      </trkpt>
      <trkpt lat="43.58288" lon="3.35623">
        <ele>206.34</ele>
        <time>2014-10-05T09:35:43Z</time>
      </trkpt>
      <trkpt lat="43.58304" lon="3.3559">
        <ele>210.67</ele>
        <time>2014-10-05T09:35:59Z</time>
      </trkpt>
      <trkpt lat="43.58315" lon="3.35543">
        <ele>210.67</ele>
        <time>2014-10-05T09:36:16Z</time>
      </trkpt>
      <trkpt lat="43.58321" lon="3.35502">
        <ele>211.15</ele>
        <time>2014-10-05T09:36:31Z</time>
      </trkpt>
      <trkpt lat="43.58326" lon="3.3546">
        <ele>210.19</ele>
        <time>2014-10-05T09:36:47Z</time>
      </trkpt>
      <trkpt lat="43.58326" lon="3.35413">
        <ele>213.55</ele>
        <time>2014-10-05T09:37:03Z</time>
      </trkpt>
      <trkpt lat="43.58327" lon="3.35368">
        <ele>216.43</ele>
        <time>2014-10-05T09:37:19Z</time>
      </trkpt>
      <trkpt lat="43.58333" lon="3.35324">
        <ele>219.32</ele>
        <time>2014-10-05T09:37:35Z</time>
      </trkpt>
      <trkpt lat="43.58333" lon="3.35321">
        <ele>219.32</ele>
        <time>2014-10-05T09:37:36Z</time>
      </trkpt>
      <trkpt lat="43.58332" lon="3.35291">
        <ele>222.68</ele>
        <time>2014-10-05T09:37:49Z</time>
      </trkpt>
      <trkpt lat="43.5833" lon="3.35286">
        <ele>224.12</ele>
        <time>2014-10-05T09:37:53Z</time>
      </trkpt>
      <trkpt lat="43.58332" lon="3.35263">
        <ele>228.45</ele>
        <time>2014-10-05T09:38:07Z</time>
      </trkpt>
      <trkpt lat="43.58331" lon="3.35248">
        <ele>234.22</ele>
        <time>2014-10-05T09:38:18Z</time>
      </trkpt>
      <trkpt lat="43.58331" lon="3.35219">
        <ele>241.43</ele>
        <time>2014-10-05T09:38:36Z</time>
      </trkpt>
      <trkpt lat="43.58322" lon="3.35205">
        <ele>246.23</ele>
        <time>2014-10-05T09:38:49Z</time>
      </trkpt>
      <trkpt lat="43.58318" lon="3.35188">
        <ele>249.12</ele>
        <time>2014-10-05T09:39:01Z</time>
      </trkpt>
      <trkpt lat="43.58317" lon="3.35185">
        <ele>249.12</ele>
        <time>2014-10-05T09:39:13Z</time>
      </trkpt>
      <trkpt lat="43.58317" lon="3.35181">
        <ele>250.08</ele>
        <time>2014-10-05T09:39:26Z</time>
      </trkpt>
      <trkpt lat="43.58316" lon="3.35179">
        <ele>249.6</ele>
        <time>2014-10-05T09:39:33Z</time>
      </trkpt>
      <trkpt lat="43.58312" lon="3.35154">
        <ele>252.48</ele>
        <time>2014-10-05T09:39:49Z</time>
      </trkpt>
      <trkpt lat="43.58308" lon="3.35126">
        <ele>256.33</ele>
        <time>2014-10-05T09:40:05Z</time>
      </trkpt>
      <trkpt lat="43.58304" lon="3.3511">
        <ele>257.29</ele>
        <time>2014-10-05T09:40:15Z</time>
      </trkpt>
      <trkpt lat="43.583" lon="3.35101">
        <ele>258.25</ele>
        <time>2014-10-05T09:40:20Z</time>
      </trkpt>
      <trkpt lat="43.58302" lon="3.35078">
        <ele>261.14</ele>
        <time>2014-10-05T09:40:31Z</time>
      </trkpt>
      <trkpt lat="43.58302" lon="3.35068">
        <ele>261.62</ele>
        <time>2014-10-05T09:40:35Z</time>
      </trkpt>
      <trkpt lat="43.58305" lon="3.35032">
        <ele>262.58</ele>
        <time>2014-10-05T09:40:51Z</time>
      </trkpt>
      <trkpt lat="43.58322" lon="3.3501">
        <ele>266.9</ele>
        <time>2014-10-05T09:41:07Z</time>
      </trkpt>
      <trkpt lat="43.58338" lon="3.34991">
        <ele>271.23</ele>
        <time>2014-10-05T09:41:21Z</time>
      </trkpt>
      <trkpt lat="43.58345" lon="3.34976">
        <ele>272.19</ele>
        <time>2014-10-05T09:41:28Z</time>
      </trkpt>
      <trkpt lat="43.5836" lon="3.34949">
        <ele>274.59</ele>
        <time>2014-10-05T09:41:43Z</time>
      </trkpt>
      <trkpt lat="43.58371" lon="3.34922">
        <ele>277.48</ele>
        <time>2014-10-05T09:42:00Z</time>
      </trkpt>
      <trkpt lat="43.58376" lon="3.34899">
        <ele>281.32</ele>
        <time>2014-10-05T09:42:15Z</time>
      </trkpt>
      <trkpt lat="43.58382" lon="3.34877">
        <ele>283.73</ele>
        <time>2014-10-05T09:42:29Z</time>
      </trkpt>
      <trkpt lat="43.58385" lon="3.34854">
        <ele>286.61</ele>
        <time>2014-10-05T09:42:44Z</time>
      </trkpt>
      <trkpt lat="43.58387" lon="3.34832">
        <ele>290.94</ele>
        <time>2014-10-05T09:42:57Z</time>
      </trkpt>
      <trkpt lat="43.58385" lon="3.34807">
        <ele>296.22</ele>
        <time>2014-10-05T09:43:11Z</time>
      </trkpt>
      <trkpt lat="43.58379" lon="3.34787">
        <ele>301.51</ele>
        <time>2014-10-05T09:43:25Z</time>
      </trkpt>
      <trkpt lat="43.5837" lon="3.34773">
        <ele>308.24</ele>
        <time>2014-10-05T09:43:38Z</time>
      </trkpt>
      <trkpt lat="43.58359" lon="3.34756">
        <ele>312.57</ele>
        <time>2014-10-05T09:43:52Z</time>
      </trkpt>
      <trkpt lat="43.58351" lon="3.34729">
        <ele>316.41</ele>
        <time>2014-10-05T09:44:06Z</time>
      </trkpt>
      <trkpt lat="43.58349" lon="3.34692">
        <ele>312.57</ele>
        <time>2014-10-05T09:44:20Z</time>
      </trkpt>
      <trkpt lat="43.58352" lon="3.34653">
        <ele>308.72</ele>
        <time>2014-10-05T09:44:35Z</time>
      </trkpt>
      <trkpt lat="43.58352" lon="3.34617">
        <ele>304.88</ele>
        <time>2014-10-05T09:44:50Z</time>
      </trkpt>
      <trkpt lat="43.58352" lon="3.34604">
        <ele>304.39</ele>
        <time>2014-10-05T09:44:54Z</time>
      </trkpt>
      <trkpt lat="43.58351" lon="3.34559">
        <ele>303.91</ele>
        <time>2014-10-05T09:45:07Z</time>
      </trkpt>
      <trkpt lat="43.58349" lon="3.34544">
        <ele>304.88</ele>
        <time>2014-10-05T09:45:12Z</time>
      </trkpt>
      <trkpt lat="43.58349" lon="3.34518">
        <ele>305.36</ele>
        <time>2014-10-05T09:45:24Z</time>
      </trkpt>
      <trkpt lat="43.5835" lon="3.34515">
        <ele>305.36</ele>
        <time>2014-10-05T09:45:35Z</time>
      </trkpt>
      <trkpt lat="43.5835" lon="3.34516">
        <ele>306.8</ele>
        <time>2014-10-05T09:46:06Z</time>
      </trkpt>
      <trkpt lat="43.58351" lon="3.34514">
        <ele>304.39</ele>
        <time>2014-10-05T09:46:48Z</time>
      </trkpt>
      <trkpt lat="43.58352" lon="3.34513">
        <ele>302.95</ele>
        <time>2014-10-05T09:47:26Z</time>
      </trkpt>
      <trkpt lat="43.58352" lon="3.34513">
        <ele>301.99</ele>
        <time>2014-10-05T09:47:58Z</time>
      </trkpt>
      <trkpt lat="43.58353" lon="3.34512">
        <ele>300.07</ele>
        <time>2014-10-05T09:48:28Z</time>
      </trkpt>
      <trkpt lat="43.58354" lon="3.34511">
        <ele>300.07</ele>
        <time>2014-10-05T09:49:02Z</time>
      </trkpt>
      <trkpt lat="43.58355" lon="3.34512">
        <ele>299.59</ele>
        <time>2014-10-05T09:49:29Z</time>
      </trkpt>
      <trkpt lat="43.58354" lon="3.34513">
        <ele>299.11</ele>
        <time>2014-10-05T09:50:05Z</time>
      </trkpt>
      <trkpt lat="43.58355" lon="3.34516">
        <ele>299.59</ele>
        <time>2014-10-05T09:50:46Z</time>
      </trkpt>
      <trkpt lat="43.58355" lon="3.34514">
        <ele>298.15</ele>
        <time>2014-10-05T09:51:17Z</time>
      </trkpt>
      <trkpt lat="43.58354" lon="3.34513">
        <ele>298.15</ele>
        <time>2014-10-05T09:51:58Z</time>
      </trkpt>
      <trkpt lat="43.58354" lon="3.34512">
        <ele>298.63</ele>
        <time>2014-10-05T09:52:27Z</time>
      </trkpt>
      <trkpt lat="43.58354" lon="3.34511">
        <ele>299.11</ele>
        <time>2014-10-05T09:53:02Z</time>
      </trkpt>
      <trkpt lat="43.58354" lon="3.34511">
        <ele>299.11</ele>
        <time>2014-10-05T09:53:21Z</time>
      </trkpt>
      <trkpt lat="43.58353" lon="3.34511">
        <ele>299.11</ele>
        <time>2014-10-05T09:53:39Z</time>
      </trkpt>
      <trkpt lat="43.58353" lon="3.34511">
        <ele>298.15</ele>
        <time>2014-10-05T09:54:09Z</time>
      </trkpt>
      <trkpt lat="43.58352" lon="3.34511">
        <ele>298.63</ele>
        <time>2014-10-05T09:54:31Z</time>
      </trkpt>
      <trkpt lat="43.58344" lon="3.34516">
        <ele>300.07</ele>
        <time>2014-10-05T09:54:47Z</time>
      </trkpt>
      <trkpt lat="43.58338" lon="3.34517">
        <ele>300.07</ele>
        <time>2014-10-05T09:55:02Z</time>
      </trkpt>
      <trkpt lat="43.58338" lon="3.34517">
        <ele>300.07</ele>
        <time>2014-10-05T09:55:12Z</time>
      </trkpt>
      <trkpt lat="43.58326" lon="3.34524">
        <ele>299.59</ele>
        <time>2014-10-05T09:55:23Z</time>
      </trkpt>
      <trkpt lat="43.58322" lon="3.34524">
        <ele>299.59</ele>
        <time>2014-10-05T09:55:26Z</time>
      </trkpt>
      <trkpt lat="43.58316" lon="3.3452">
        <ele>302.95</ele>
        <time>2014-10-05T09:55:35Z</time>
      </trkpt>
      <trkpt lat="43.583" lon="3.34528">
        <ele>303.43</ele>
        <time>2014-10-05T09:55:46Z</time>
      </trkpt>
      <trkpt lat="43.58291" lon="3.34528">
        <ele>304.88</ele>
        <time>2014-10-05T09:55:51Z</time>
      </trkpt>
      <trkpt lat="43.58278" lon="3.34512">
        <ele>307.28</ele>
        <time>2014-10-05T09:56:07Z</time>
      </trkpt>
      <trkpt lat="43.58269" lon="3.34497">
        <ele>307.76</ele>
        <time>2014-10-05T09:56:21Z</time>
      </trkpt>
      <trkpt lat="43.58261" lon="3.34487">
        <ele>313.05</ele>
        <time>2014-10-05T09:56:38Z</time>
      </trkpt>
      <trkpt lat="43.58258" lon="3.34487">
        <ele>316.41</ele>
        <time>2014-10-05T09:56:52Z</time>
      </trkpt>
      <trkpt lat="43.58257" lon="3.34469">
        <ele>318.81</ele>
        <time>2014-10-05T09:57:02Z</time>
      </trkpt>
      <trkpt lat="43.58258" lon="3.34465">
        <ele>319.3</ele>
        <time>2014-10-05T09:57:15Z</time>
      </trkpt>
      <trkpt lat="43.58259" lon="3.34463">
        <ele>318.33</ele>
        <time>2014-10-05T09:57:31Z</time>
      </trkpt>
      <trkpt lat="43.58259" lon="3.34462">
        <ele>317.37</ele>
        <time>2014-10-05T09:57:54Z</time>
      </trkpt>
      <trkpt lat="43.5826" lon="3.34463">
        <ele>317.37</ele>
        <time>2014-10-05T09:58:15Z</time>
      </trkpt>
      <trkpt lat="43.5826" lon="3.34464">
        <ele>317.85</ele>
        <time>2014-10-05T09:58:37Z</time>
      </trkpt>
      <trkpt lat="43.58261" lon="3.34464">
        <ele>318.33</ele>
        <time>2014-10-05T09:59:02Z</time>
      </trkpt>
      <trkpt lat="43.5826" lon="3.34464">
        <ele>318.33</ele>
        <time>2014-10-05T09:59:29Z</time>
      </trkpt>
      <trkpt lat="43.58259" lon="3.34464">
        <ele>316.89</ele>
        <time>2014-10-05T09:59:57Z</time>
      </trkpt>
      <trkpt lat="43.58258" lon="3.34463">
        <ele>317.85</ele>
        <time>2014-10-05T10:00:28Z</time>
      </trkpt>
      <trkpt lat="43.58258" lon="3.34463">
        <ele>317.85</ele>
        <time>2014-10-05T10:00:52Z</time>
      </trkpt>
      <trkpt lat="43.58258" lon="3.34461">
        <ele>316.41</ele>
        <time>2014-10-05T10:01:26Z</time>
      </trkpt>
      <trkpt lat="43.58258" lon="3.34462">
        <ele>316.89</ele>
        <time>2014-10-05T10:01:46Z</time>
      </trkpt>
      <trkpt lat="43.58259" lon="3.34462">
        <ele>316.89</ele>
        <time>2014-10-05T10:01:59Z</time>
      </trkpt>
      <trkpt lat="43.58277" lon="3.34453">
        <ele>320.26</ele>
        <time>2014-10-05T10:02:13Z</time>
      </trkpt>
      <trkpt lat="43.58283" lon="3.34448">
        <ele>321.7</ele>
        <time>2014-10-05T10:02:18Z</time>
      </trkpt>
      <trkpt lat="43.58285" lon="3.34439">
        <ele>323.14</ele>
        <time>2014-10-05T10:02:22Z</time>
      </trkpt>
      <trkpt lat="43.58282" lon="3.34431">
        <ele>324.58</ele>
        <time>2014-10-05T10:02:26Z</time>
      </trkpt>
      <trkpt lat="43.5826" lon="3.34425">
        <ele>326.5</ele>
        <time>2014-10-05T10:02:40Z</time>
      </trkpt>
      <trkpt lat="43.58245" lon="3.34399">
        <ele>330.83</ele>
        <time>2014-10-05T10:02:54Z</time>
      </trkpt>
      <trkpt lat="43.58229" lon="3.34356">
        <ele>335.16</ele>
        <time>2014-10-05T10:03:13Z</time>
      </trkpt>
      <trkpt lat="43.5822" lon="3.34312">
        <ele>337.08</ele>
        <time>2014-10-05T10:03:29Z</time>
      </trkpt>
      <trkpt lat="43.5822" lon="3.34271">
        <ele>339</ele>
        <time>2014-10-05T10:03:43Z</time>
      </trkpt>
      <trkpt lat="43.58224" lon="3.34217">
        <ele>340.44</ele>
        <time>2014-10-05T10:04:02Z</time>
      </trkpt>
      <trkpt lat="43.58237" lon="3.34185">
        <ele>339.48</ele>
        <time>2014-10-05T10:04:16Z</time>
      </trkpt>
      <trkpt lat="43.58258" lon="3.34141">
        <ele>341.41</ele>
        <time>2014-10-05T10:04:37Z</time>
      </trkpt>
      <trkpt lat="43.58277" lon="3.34101">
        <ele>344.29</ele>
        <time>2014-10-05T10:04:55Z</time>
      </trkpt>
      <trkpt lat="43.58287" lon="3.34067">
        <ele>347.17</ele>
        <time>2014-10-05T10:05:09Z</time>
      </trkpt>
      <trkpt lat="43.58264" lon="3.34043">
        <ele>349.1</ele>
        <time>2014-10-05T10:05:24Z</time>
      </trkpt>
      <trkpt lat="43.58241" lon="3.34016">
        <ele>351.98</ele>
        <time>2014-10-05T10:05:39Z</time>
      </trkpt>
      <trkpt lat="43.58216" lon="3.33977">
        <ele>354.86</ele>
        <time>2014-10-05T10:05:57Z</time>
      </trkpt>
      <trkpt lat="43.58205" lon="3.33933">
        <ele>359.67</ele>
        <time>2014-10-05T10:06:13Z</time>
      </trkpt>
      <trkpt lat="43.58212" lon="3.33887">
        <ele>360.15</ele>
        <time>2014-10-05T10:06:30Z</time>
      </trkpt>
      <trkpt lat="43.58231" lon="3.33839">
        <ele>360.63</ele>
        <time>2014-10-05T10:06:49Z</time>
      </trkpt>
      <trkpt lat="43.5824" lon="3.33791">
        <ele>363.52</ele>
        <time>2014-10-05T10:07:06Z</time>
      </trkpt>
      <trkpt lat="43.58243" lon="3.33738">
        <ele>365.44</ele>
        <time>2014-10-05T10:07:24Z</time>
      </trkpt>
      <trkpt lat="43.58236" lon="3.33692">
        <ele>369.28</ele>
        <time>2014-10-05T10:07:39Z</time>
      </trkpt>
      <trkpt lat="43.58243" lon="3.33651">
        <ele>370.73</ele>
        <time>2014-10-05T10:07:53Z</time>
      </trkpt>
      <trkpt lat="43.58255" lon="3.33605">
        <ele>369.76</ele>
        <time>2014-10-05T10:08:10Z</time>
      </trkpt>
      <trkpt lat="43.58273" lon="3.33573">
        <ele>369.76</ele>
        <time>2014-10-05T10:08:25Z</time>
      </trkpt>
      <trkpt lat="43.58282" lon="3.33544">
        <ele>370.24</ele>
        <time>2014-10-05T10:08:39Z</time>
      </trkpt>
      <trkpt lat="43.58287" lon="3.3352">
        <ele>370.73</ele>
        <time>2014-10-05T10:08:52Z</time>
      </trkpt>
      <trkpt lat="43.58287" lon="3.33518">
        <ele>370.73</ele>
        <time>2014-10-05T10:08:53Z</time>
      </trkpt>
      <trkpt lat="43.58291" lon="3.33482">
        <ele>371.21</ele>
        <time>2014-10-05T10:09:09Z</time>
      </trkpt>
      <trkpt lat="43.58293" lon="3.33456">
        <ele>372.65</ele>
        <time>2014-10-05T10:09:25Z</time>
      </trkpt>
      <trkpt lat="43.58297" lon="3.33427">
        <ele>373.13</ele>
        <time>2014-10-05T10:09:42Z</time>
      </trkpt>
      <trkpt lat="43.58303" lon="3.33394">
        <ele>371.69</ele>
        <time>2014-10-05T10:09:57Z</time>
      </trkpt>
      <trkpt lat="43.58309" lon="3.33358">
        <ele>369.28</ele>
        <time>2014-10-05T10:10:10Z</time>
      </trkpt>
      <trkpt lat="43.58311" lon="3.33346">
        <ele>367.36</ele>
        <time>2014-10-05T10:10:22Z</time>
      </trkpt>
      <trkpt lat="43.5831" lon="3.33345">
        <ele>366.4</ele>
        <time>2014-10-05T10:10:54Z</time>
      </trkpt>
      <trkpt lat="43.5831" lon="3.33344">
        <ele>367.36</ele>
        <time>2014-10-05T10:11:24Z</time>
      </trkpt>
      <trkpt lat="43.58311" lon="3.33344">
        <ele>366.4</ele>
        <time>2014-10-05T10:11:58Z</time>
      </trkpt>
      <trkpt lat="43.58311" lon="3.33347">
        <ele>366.4</ele>
        <time>2014-10-05T10:12:24Z</time>
      </trkpt>
      <trkpt lat="43.5831" lon="3.33359">
        <ele>366.88</ele>
        <time>2014-10-05T10:12:31Z</time>
      </trkpt>
      <trkpt lat="43.58305" lon="3.33387">
        <ele>368.32</ele>
        <time>2014-10-05T10:12:45Z</time>
      </trkpt>
      <trkpt lat="43.58304" lon="3.33389">
        <ele>369.28</ele>
        <time>2014-10-05T10:13:11Z</time>
      </trkpt>
      <trkpt lat="43.58304" lon="3.33387">
        <ele>368.8</ele>
        <time>2014-10-05T10:13:24Z</time>
      </trkpt>
      <trkpt lat="43.58304" lon="3.33387">
        <ele>368.8</ele>
        <time>2014-10-05T10:13:26Z</time>
      </trkpt>
      <trkpt lat="43.58306" lon="3.33376">
        <ele>368.8</ele>
        <time>2014-10-05T10:13:31Z</time>
      </trkpt>
      <trkpt lat="43.58307" lon="3.33303">
        <ele>366.4</ele>
        <time>2014-10-05T10:13:45Z</time>
      </trkpt>
      <trkpt lat="43.58306" lon="3.33236">
        <ele>364.48</ele>
        <time>2014-10-05T10:13:54Z</time>
      </trkpt>
      <trkpt lat="43.58323" lon="3.33165">
        <ele>362.55</ele>
        <time>2014-10-05T10:14:08Z</time>
      </trkpt>
      <trkpt lat="43.58319" lon="3.33098">
        <ele>360.15</ele>
        <time>2014-10-05T10:14:21Z</time>
      </trkpt>
      <trkpt lat="43.58319" lon="3.33093">
        <ele>359.67</ele>
        <time>2014-10-05T10:14:22Z</time>
      </trkpt>
      <trkpt lat="43.58321" lon="3.33069">
        <ele>358.71</ele>
        <time>2014-10-05T10:14:26Z</time>
      </trkpt>
      <trkpt lat="43.58339" lon="3.33007">
        <ele>355.83</ele>
        <time>2014-10-05T10:14:36Z</time>
      </trkpt>
      <trkpt lat="43.58349" lon="3.32906">
        <ele>353.9</ele>
        <time>2014-10-05T10:14:51Z</time>
      </trkpt>
      <trkpt lat="43.58347" lon="3.32879">
        <ele>353.9</ele>
        <time>2014-10-05T10:14:55Z</time>
      </trkpt>
      <trkpt lat="43.58345" lon="3.32866">
        <ele>354.38</ele>
        <time>2014-10-05T10:14:57Z</time>
      </trkpt>
      <trkpt lat="43.5833" lon="3.32834">
        <ele>357.27</ele>
        <time>2014-10-05T10:15:06Z</time>
      </trkpt>
      <trkpt lat="43.58293" lon="3.32808">
        <ele>356.31</ele>
        <time>2014-10-05T10:15:20Z</time>
      </trkpt>
      <trkpt lat="43.58234" lon="3.32752">
        <ele>356.31</ele>
        <time>2014-10-05T10:15:40Z</time>
      </trkpt>
      <trkpt lat="43.58227" lon="3.32686">
        <ele>359.67</ele>
        <time>2014-10-05T10:15:55Z</time>
      </trkpt>
      <trkpt lat="43.58233" lon="3.32621">
        <ele>362.55</ele>
        <time>2014-10-05T10:16:14Z</time>
      </trkpt>
      <trkpt lat="43.58242" lon="3.32575">
        <ele>364.48</ele>
        <time>2014-10-05T10:16:29Z</time>
      </trkpt>
      <trkpt lat="43.58245" lon="3.32532">
        <ele>367.36</ele>
        <time>2014-10-05T10:16:43Z</time>
      </trkpt>
      <trkpt lat="43.58235" lon="3.32484">
        <ele>370.24</ele>
        <time>2014-10-05T10:16:58Z</time>
      </trkpt>
      <trkpt lat="43.58251" lon="3.3245">
        <ele>371.69</ele>
        <time>2014-10-05T10:17:13Z</time>
      </trkpt>
      <trkpt lat="43.58277" lon="3.32423">
        <ele>374.57</ele>
        <time>2014-10-05T10:17:28Z</time>
      </trkpt>
      <trkpt lat="43.58312" lon="3.32396">
        <ele>376.01</ele>
        <time>2014-10-05T10:17:45Z</time>
      </trkpt>
      <trkpt lat="43.58354" lon="3.32395">
        <ele>377.94</ele>
        <time>2014-10-05T10:18:04Z</time>
      </trkpt>
      <trkpt lat="43.58386" lon="3.32394">
        <ele>380.82</ele>
        <time>2014-10-05T10:18:19Z</time>
      </trkpt>
      <trkpt lat="43.58417" lon="3.32371">
        <ele>383.22</ele>
        <time>2014-10-05T10:18:37Z</time>
      </trkpt>
      <trkpt lat="43.58454" lon="3.32336">
        <ele>386.59</ele>
        <time>2014-10-05T10:18:58Z</time>
      </trkpt>
      <trkpt lat="43.58484" lon="3.32304">
        <ele>388.99</ele>
        <time>2014-10-05T10:19:15Z</time>
      </trkpt>
      <trkpt lat="43.58508" lon="3.32264">
        <ele>392.36</ele>
        <time>2014-10-05T10:19:31Z</time>
      </trkpt>
      <trkpt lat="43.58519" lon="3.32224">
        <ele>395.72</ele>
        <time>2014-10-05T10:19:44Z</time>
      </trkpt>
      <trkpt lat="43.58513" lon="3.32185">
        <ele>396.68</ele>
        <time>2014-10-05T10:19:56Z</time>
      </trkpt>
      <trkpt lat="43.58491" lon="3.32134">
        <ele>398.12</ele>
        <time>2014-10-05T10:20:12Z</time>
      </trkpt>
      <trkpt lat="43.58478" lon="3.32094">
        <ele>399.57</ele>
        <time>2014-10-05T10:20:25Z</time>
      </trkpt>
      <trkpt lat="43.58448" lon="3.32081">
        <ele>399.57</ele>
        <time>2014-10-05T10:20:40Z</time>
      </trkpt>
      <trkpt lat="43.58435" lon="3.3208">
        <ele>399.08</ele>
        <time>2014-10-05T10:20:53Z</time>
      </trkpt>
      <trkpt lat="43.5843" lon="3.32084">
        <ele>401.49</ele>
        <time>2014-10-05T10:21:14Z</time>
      </trkpt>
      <trkpt lat="43.58429" lon="3.32085">
        <ele>403.41</ele>
        <time>2014-10-05T10:21:53Z</time>
      </trkpt>
      <trkpt lat="43.58429" lon="3.32085">
        <ele>404.85</ele>
        <time>2014-10-05T10:22:20Z</time>
      </trkpt>
      <trkpt lat="43.58429" lon="3.32086">
        <ele>405.33</ele>
        <time>2014-10-05T10:22:37Z</time>
      </trkpt>
      <trkpt lat="43.58436" lon="3.32085">
        <ele>404.37</ele>
        <time>2014-10-05T10:22:42Z</time>
      </trkpt>
      <trkpt lat="43.58462" lon="3.32089">
        <ele>404.85</ele>
        <time>2014-10-05T10:22:51Z</time>
      </trkpt>
      <trkpt lat="43.58486" lon="3.32139">
        <ele>404.85</ele>
        <time>2014-10-05T10:23:00Z</time>
      </trkpt>
      <trkpt lat="43.58487" lon="3.32146">
        <ele>404.37</ele>
        <time>2014-10-05T10:23:01Z</time>
      </trkpt>
      <trkpt lat="43.58493" lon="3.32164">
        <ele>403.41</ele>
        <time>2014-10-05T10:23:04Z</time>
      </trkpt>
      <trkpt lat="43.5851" lon="3.32186">
        <ele>402.93</ele>
        <time>2014-10-05T10:23:11Z</time>
      </trkpt>
      <trkpt lat="43.58513" lon="3.32191">
        <ele>402.45</ele>
        <time>2014-10-05T10:23:14Z</time>
      </trkpt>
      <trkpt lat="43.58511" lon="3.32184">
        <ele>402.45</ele>
        <time>2014-10-05T10:23:20Z</time>
      </trkpt>
      <trkpt lat="43.5849" lon="3.32145">
        <ele>402.45</ele>
        <time>2014-10-05T10:23:37Z</time>
      </trkpt>
      <trkpt lat="43.58482" lon="3.32101">
        <ele>401.97</ele>
        <time>2014-10-05T10:23:52Z</time>
      </trkpt>
      <trkpt lat="43.58473" lon="3.32092">
        <ele>401.97</ele>
        <time>2014-10-05T10:24:01Z</time>
      </trkpt>
      <trkpt lat="43.58449" lon="3.32083">
        <ele>400.05</ele>
        <time>2014-10-05T10:24:15Z</time>
      </trkpt>
      <trkpt lat="43.58435" lon="3.32083">
        <ele>399.08</ele>
        <time>2014-10-05T10:24:28Z</time>
      </trkpt>
      <trkpt lat="43.58435" lon="3.32084">
        <ele>399.57</ele>
        <time>2014-10-05T10:24:50Z</time>
      </trkpt>
      <trkpt lat="43.58435" lon="3.32084">
        <ele>398.6</ele>
        <time>2014-10-05T10:25:11Z</time>
      </trkpt>
      <trkpt lat="43.58435" lon="3.32085">
        <ele>399.08</ele>
        <time>2014-10-05T10:25:27Z</time>
      </trkpt>
      <trkpt lat="43.58435" lon="3.32084">
        <ele>399.57</ele>
        <time>2014-10-05T10:25:51Z</time>
      </trkpt>
      <trkpt lat="43.58435" lon="3.32083">
        <ele>399.57</ele>
        <time>2014-10-05T10:26:12Z</time>
      </trkpt>
      <trkpt lat="43.58435" lon="3.32084">
        <ele>398.6</ele>
        <time>2014-10-05T10:26:30Z</time>
      </trkpt>
      <trkpt lat="43.58434" lon="3.32085">
        <ele>400.05</ele>
        <time>2014-10-05T10:26:59Z</time>
      </trkpt>
      <trkpt lat="43.58429" lon="3.32086">
        <ele>399.57</ele>
        <time>2014-10-05T10:27:21Z</time>
      </trkpt>
      <trkpt lat="43.58388" lon="3.32098">
        <ele>396.2</ele>
        <time>2014-10-05T10:27:31Z</time>
      </trkpt>
      <trkpt lat="43.58367" lon="3.32107">
        <ele>394.28</ele>
        <time>2014-10-05T10:27:34Z</time>
      </trkpt>
      <trkpt lat="43.5827" lon="3.32124">
        <ele>388.99</ele>
        <time>2014-10-05T10:27:47Z</time>
      </trkpt>
      <trkpt lat="43.5822" lon="3.32155">
        <ele>384.66</ele>
        <time>2014-10-05T10:27:55Z</time>
      </trkpt>
      <trkpt lat="43.58194" lon="3.3217">
        <ele>381.78</ele>
        <time>2014-10-05T10:27:59Z</time>
      </trkpt>
      <trkpt lat="43.58131" lon="3.32214">
        <ele>376.49</ele>
        <time>2014-10-05T10:28:08Z</time>
      </trkpt>
      <trkpt lat="43.58101" lon="3.32241">
        <ele>373.13</ele>
        <time>2014-10-05T10:28:12Z</time>
      </trkpt>
      <trkpt lat="43.58061" lon="3.32298">
        <ele>367.84</ele>
        <time>2014-10-05T10:28:18Z</time>
      </trkpt>
      <trkpt lat="43.58027" lon="3.32344">
        <ele>365.92</ele>
        <time>2014-10-05T10:28:23Z</time>
      </trkpt>
      <trkpt lat="43.57998" lon="3.32402">
        <ele>362.55</ele>
        <time>2014-10-05T10:28:29Z</time>
      </trkpt>
      <trkpt lat="43.57975" lon="3.32436">
        <ele>360.15</ele>
        <time>2014-10-05T10:28:33Z</time>
      </trkpt>
      <trkpt lat="43.57944" lon="3.32477">
        <ele>359.67</ele>
        <time>2014-10-05T10:28:39Z</time>
      </trkpt>
      <trkpt lat="43.57885" lon="3.32518">
        <ele>359.67</ele>
        <time>2014-10-05T10:28:50Z</time>
      </trkpt>
      <trkpt lat="43.57843" lon="3.32536">
        <ele>361.59</ele>
        <time>2014-10-05T10:29:03Z</time>
      </trkpt>
      <trkpt lat="43.57809" lon="3.32559">
        <ele>361.59</ele>
        <time>2014-10-05T10:29:15Z</time>
      </trkpt>
      <trkpt lat="43.57783" lon="3.32588">
        <ele>360.63</ele>
        <time>2014-10-05T10:29:23Z</time>
      </trkpt>
      <trkpt lat="43.5777" lon="3.32615">
        <ele>358.71</ele>
        <time>2014-10-05T10:29:29Z</time>
      </trkpt>
      <trkpt lat="43.57763" lon="3.32628">
        <ele>356.79</ele>
        <time>2014-10-05T10:29:32Z</time>
      </trkpt>
      <trkpt lat="43.57739" lon="3.32667">
        <ele>351.5</ele>
        <time>2014-10-05T10:29:40Z</time>
      </trkpt>
      <trkpt lat="43.57722" lon="3.3268">
        <ele>349.58</ele>
        <time>2014-10-05T10:29:44Z</time>
      </trkpt>
      <trkpt lat="43.57707" lon="3.3269">
        <ele>347.65</ele>
        <time>2014-10-05T10:29:47Z</time>
      </trkpt>
      <trkpt lat="43.57674" lon="3.32707">
        <ele>345.25</ele>
        <time>2014-10-05T10:29:53Z</time>
      </trkpt>
      <trkpt lat="43.57662" lon="3.32713">
        <ele>344.77</ele>
        <time>2014-10-05T10:29:55Z</time>
      </trkpt>
      <trkpt lat="43.57627" lon="3.32734">
        <ele>342.85</ele>
        <time>2014-10-05T10:30:03Z</time>
      </trkpt>
      <trkpt lat="43.57611" lon="3.32715">
        <ele>340.44</ele>
        <time>2014-10-05T10:30:10Z</time>
      </trkpt>
      <trkpt lat="43.5759" lon="3.32733">
        <ele>336.12</ele>
        <time>2014-10-05T10:30:17Z</time>
      </trkpt>
      <trkpt lat="43.57588" lon="3.32746">
        <ele>334.68</ele>
        <time>2014-10-05T10:30:19Z</time>
      </trkpt>
      <trkpt lat="43.57587" lon="3.32758">
        <ele>332.75</ele>
        <time>2014-10-05T10:30:21Z</time>
      </trkpt>
      <trkpt lat="43.57559" lon="3.32795">
        <ele>325.54</ele>
        <time>2014-10-05T10:30:30Z</time>
      </trkpt>
      <trkpt lat="43.57541" lon="3.32815">
        <ele>323.14</ele>
        <time>2014-10-05T10:30:35Z</time>
      </trkpt>
      <trkpt lat="43.57532" lon="3.32824">
        <ele>323.14</ele>
        <time>2014-10-05T10:30:37Z</time>
      </trkpt>
      <trkpt lat="43.57519" lon="3.32837">
        <ele>323.62</ele>
        <time>2014-10-05T10:30:40Z</time>
      </trkpt>
      <trkpt lat="43.57496" lon="3.32861">
        <ele>321.7</ele>
        <time>2014-10-05T10:30:46Z</time>
      </trkpt>
      <trkpt lat="43.57488" lon="3.32869">
        <ele>320.74</ele>
        <time>2014-10-05T10:30:48Z</time>
      </trkpt>
      <trkpt lat="43.57478" lon="3.32882">
        <ele>319.3</ele>
        <time>2014-10-05T10:30:51Z</time>
      </trkpt>
      <trkpt lat="43.5746" lon="3.32898">
        <ele>318.81</ele>
        <time>2014-10-05T10:30:55Z</time>
      </trkpt>
      <trkpt lat="43.57432" lon="3.32945">
        <ele>314.97</ele>
        <time>2014-10-05T10:31:04Z</time>
      </trkpt>
      <trkpt lat="43.57426" lon="3.32956">
        <ele>313.53</ele>
        <time>2014-10-05T10:31:06Z</time>
      </trkpt>
      <trkpt lat="43.57424" lon="3.32966">
        <ele>312.09</ele>
        <time>2014-10-05T10:31:08Z</time>
      </trkpt>
      <trkpt lat="43.57408" lon="3.33005">
        <ele>304.39</ele>
        <time>2014-10-05T10:31:18Z</time>
      </trkpt>
      <trkpt lat="43.57408" lon="3.33009">
        <ele>303.43</ele>
        <time>2014-10-05T10:31:19Z</time>
      </trkpt>
      <trkpt lat="43.57397" lon="3.33032">
        <ele>298.15</ele>
        <time>2014-10-05T10:31:26Z</time>
      </trkpt>
      <trkpt lat="43.57386" lon="3.33061">
        <ele>291.42</ele>
        <time>2014-10-05T10:31:36Z</time>
      </trkpt>
      <trkpt lat="43.57381" lon="3.33066">
        <ele>290.94</ele>
        <time>2014-10-05T10:31:48Z</time>
      </trkpt>
      <trkpt lat="43.57377" lon="3.3307">
        <ele>291.42</ele>
        <time>2014-10-05T10:32:09Z</time>
      </trkpt>
      <trkpt lat="43.57375" lon="3.33073">
        <ele>291.42</ele>
        <time>2014-10-05T10:32:23Z</time>
      </trkpt>
      <trkpt lat="43.5737" lon="3.33083">
        <ele>289.97</ele>
        <time>2014-10-05T10:32:36Z</time>
      </trkpt>
      <trkpt lat="43.57367" lon="3.33086">
        <ele>290.94</ele>
        <time>2014-10-05T10:32:48Z</time>
      </trkpt>
      <trkpt lat="43.57362" lon="3.33101">
        <ele>289.97</ele>
        <time>2014-10-05T10:32:54Z</time>
      </trkpt>
      <trkpt lat="43.57359" lon="3.33121">
        <ele>288.05</ele>
        <time>2014-10-05T10:32:59Z</time>
      </trkpt>
      <trkpt lat="43.57357" lon="3.33131">
        <ele>286.61</ele>
        <time>2014-10-05T10:33:01Z</time>
      </trkpt>
      <trkpt lat="43.57352" lon="3.33143">
        <ele>284.69</ele>
        <time>2014-10-05T10:33:03Z</time>
      </trkpt>
      <trkpt lat="43.57323" lon="3.33188">
        <ele>276.04</ele>
        <time>2014-10-05T10:33:10Z</time>
      </trkpt>
      <trkpt lat="43.57309" lon="3.33218">
        <ele>270.75</ele>
        <time>2014-10-05T10:33:14Z</time>
      </trkpt>
      <trkpt lat="43.57299" lon="3.33265">
        <ele>259.21</ele>
        <time>2014-10-05T10:33:22Z</time>
      </trkpt>
      <trkpt lat="43.57289" lon="3.33291">
        <ele>252</ele>
        <time>2014-10-05T10:33:27Z</time>
      </trkpt>
      <trkpt lat="43.57266" lon="3.33329">
        <ele>245.27</ele>
        <time>2014-10-05T10:33:35Z</time>
      </trkpt>
      <trkpt lat="43.57254" lon="3.33347">
        <ele>248.16</ele>
        <time>2014-10-05T10:33:46Z</time>
      </trkpt>
      <trkpt lat="43.57253" lon="3.33354">
        <ele>250.08</ele>
        <time>2014-10-05T10:33:58Z</time>
      </trkpt>
      <trkpt lat="43.57251" lon="3.33353">
        <ele>251.04</ele>
        <time>2014-10-05T10:34:18Z</time>
      </trkpt>
      <trkpt lat="43.57251" lon="3.33353">
        <ele>251.52</ele>
        <time>2014-10-05T10:34:22Z</time>
      </trkpt>
      <trkpt lat="43.57233" lon="3.33374">
        <ele>249.6</ele>
        <time>2014-10-05T10:34:31Z</time>
      </trkpt>
      <trkpt lat="43.57232" lon="3.33379">
        <ele>249.6</ele>
        <time>2014-10-05T10:34:32Z</time>
      </trkpt>
      <trkpt lat="43.57226" lon="3.33436">
        <ele>246.23</ele>
        <time>2014-10-05T10:34:45Z</time>
      </trkpt>
      <trkpt lat="43.57225" lon="3.33484">
        <ele>241.91</ele>
        <time>2014-10-05T10:34:58Z</time>
      </trkpt>
      <trkpt lat="43.57215" lon="3.33513">
        <ele>239.99</ele>
        <time>2014-10-05T10:35:04Z</time>
      </trkpt>
      <trkpt lat="43.57186" lon="3.33574">
        <ele>233.74</ele>
        <time>2014-10-05T10:35:16Z</time>
      </trkpt>
      <trkpt lat="43.57183" lon="3.33615">
        <ele>231.81</ele>
        <time>2014-10-05T10:35:22Z</time>
      </trkpt>
      <trkpt lat="43.57204" lon="3.33705">
        <ele>228.45</ele>
        <time>2014-10-05T10:35:33Z</time>
      </trkpt>
      <trkpt lat="43.57255" lon="3.33819">
        <ele>220.28</ele>
        <time>2014-10-05T10:35:46Z</time>
      </trkpt>
      <trkpt lat="43.57262" lon="3.33833">
        <ele>219.8</ele>
        <time>2014-10-05T10:35:48Z</time>
      </trkpt>
      <trkpt lat="43.5726" lon="3.33894">
        <ele>215.95</ele>
        <time>2014-10-05T10:35:55Z</time>
      </trkpt>
      <trkpt lat="43.57233" lon="3.33903">
        <ele>214.51</ele>
        <time>2014-10-05T10:36:00Z</time>
      </trkpt>
      <trkpt lat="43.57228" lon="3.33905">
        <ele>214.03</ele>
        <time>2014-10-05T10:36:01Z</time>
      </trkpt>
      <trkpt lat="43.57217" lon="3.33912">
        <ele>213.55</ele>
        <time>2014-10-05T10:36:03Z</time>
      </trkpt>
      <trkpt lat="43.57191" lon="3.33922">
        <ele>213.55</ele>
        <time>2014-10-05T10:36:08Z</time>
      </trkpt>
      <trkpt lat="43.57178" lon="3.33928">
        <ele>213.07</ele>
        <time>2014-10-05T10:36:11Z</time>
      </trkpt>
      <trkpt lat="43.57147" lon="3.33945">
        <ele>214.03</ele>
        <time>2014-10-05T10:36:20Z</time>
      </trkpt>
      <trkpt lat="43.57101" lon="3.33946">
        <ele>217.4</ele>
        <time>2014-10-05T10:36:35Z</time>
      </trkpt>
      <trkpt lat="43.5707" lon="3.33961">
        <ele>216.91</ele>
        <time>2014-10-05T10:36:49Z</time>
      </trkpt>
      <trkpt lat="43.57036" lon="3.33988">
        <ele>212.11</ele>
        <time>2014-10-05T10:37:05Z</time>
      </trkpt>
      <trkpt lat="43.57016" lon="3.3403">
        <ele>211.63</ele>
        <time>2014-10-05T10:37:16Z</time>
      </trkpt>
      <trkpt lat="43.57004" lon="3.3408">
        <ele>216.43</ele>
        <time>2014-10-05T10:37:31Z</time>
      </trkpt>
      <trkpt lat="43.56999" lon="3.34134">
        <ele>214.99</ele>
        <time>2014-10-05T10:37:46Z</time>
      </trkpt>
      <trkpt lat="43.56998" lon="3.34168">
        <ele>213.07</ele>
        <time>2014-10-05T10:37:54Z</time>
      </trkpt>
      <trkpt lat="43.56997" lon="3.34181">
        <ele>212.11</ele>
        <time>2014-10-05T10:37:56Z</time>
      </trkpt>
      <trkpt lat="43.56988" lon="3.34219">
        <ele>210.19</ele>
        <time>2014-10-05T10:38:01Z</time>
      </trkpt>
      <trkpt lat="43.56982" lon="3.34274">
        <ele>206.34</ele>
        <time>2014-10-05T10:38:08Z</time>
      </trkpt>
      <trkpt lat="43.56978" lon="3.34321">
        <ele>202.98</ele>
        <time>2014-10-05T10:38:15Z</time>
      </trkpt>
      <trkpt lat="43.56987" lon="3.34332">
        <ele>204.42</ele>
        <time>2014-10-05T10:38:24Z</time>
      </trkpt>
      <trkpt lat="43.56996" lon="3.34359">
        <ele>205.86</ele>
        <time>2014-10-05T10:38:38Z</time>
      </trkpt>
      <trkpt lat="43.56991" lon="3.34399">
        <ele>210.19</ele>
        <time>2014-10-05T10:38:54Z</time>
      </trkpt>
      <trkpt lat="43.56988" lon="3.34408">
        <ele>211.15</ele>
        <time>2014-10-05T10:38:58Z</time>
      </trkpt>
      <trkpt lat="43.56984" lon="3.34414">
        <ele>212.11</ele>
        <time>2014-10-05T10:39:02Z</time>
      </trkpt>
      <trkpt lat="43.56958" lon="3.34428">
        <ele>216.43</ele>
        <time>2014-10-05T10:39:20Z</time>
      </trkpt>
      <trkpt lat="43.56948" lon="3.34432">
        <ele>219.8</ele>
        <time>2014-10-05T10:39:32Z</time>
      </trkpt>
      <trkpt lat="43.56944" lon="3.34445">
        <ele>221.24</ele>
        <time>2014-10-05T10:39:39Z</time>
      </trkpt>
      <trkpt lat="43.56943" lon="3.34474">
        <ele>221.24</ele>
        <time>2014-10-05T10:39:51Z</time>
      </trkpt>
      <trkpt lat="43.56942" lon="3.34476">
        <ele>221.24</ele>
        <time>2014-10-05T10:39:52Z</time>
      </trkpt>
      <trkpt lat="43.56928" lon="3.34528">
        <ele>222.68</ele>
        <time>2014-10-05T10:40:12Z</time>
      </trkpt>
      <trkpt lat="43.56924" lon="3.34563">
        <ele>227.01</ele>
        <time>2014-10-05T10:40:27Z</time>
      </trkpt>
      <trkpt lat="43.56926" lon="3.34566">
        <ele>227.97</ele>
        <time>2014-10-05T10:40:31Z</time>
      </trkpt>
      <trkpt lat="43.5693" lon="3.34565">
        <ele>228.45</ele>
        <time>2014-10-05T10:40:37Z</time>
      </trkpt>
      <trkpt lat="43.56929" lon="3.34569">
        <ele>228.45</ele>
        <time>2014-10-05T10:40:45Z</time>
      </trkpt>
      <trkpt lat="43.56931" lon="3.34562">
        <ele>228.93</ele>
        <time>2014-10-05T10:40:53Z</time>
      </trkpt>
      <trkpt lat="43.5693" lon="3.34561">
        <ele>228.45</ele>
        <time>2014-10-05T10:41:05Z</time>
      </trkpt>
      <trkpt lat="43.5693" lon="3.34562">
        <ele>226.05</ele>
        <time>2014-10-05T10:41:23Z</time>
      </trkpt>
      <trkpt lat="43.56924" lon="3.3457">
        <ele>225.57</ele>
        <time>2014-10-05T10:41:27Z</time>
      </trkpt>
      <trkpt lat="43.56916" lon="3.34576">
        <ele>226.53</ele>
        <time>2014-10-05T10:41:31Z</time>
      </trkpt>
      <trkpt lat="43.56917" lon="3.34593">
        <ele>228.45</ele>
        <time>2014-10-05T10:41:37Z</time>
      </trkpt>
      <trkpt lat="43.56917" lon="3.34624">
        <ele>229.89</ele>
        <time>2014-10-05T10:41:47Z</time>
      </trkpt>
      <trkpt lat="43.56922" lon="3.34659">
        <ele>235.18</ele>
        <time>2014-10-05T10:42:04Z</time>
      </trkpt>
      <trkpt lat="43.56931" lon="3.34686">
        <ele>237.1</ele>
        <time>2014-10-05T10:42:16Z</time>
      </trkpt>
      <trkpt lat="43.56932" lon="3.34695">
        <ele>236.62</ele>
        <time>2014-10-05T10:42:25Z</time>
      </trkpt>
      <trkpt lat="43.56933" lon="3.34704">
        <ele>238.06</ele>
        <time>2014-10-05T10:42:38Z</time>
      </trkpt>
      <trkpt lat="43.56934" lon="3.34706">
        <ele>239.02</ele>
        <time>2014-10-05T10:42:48Z</time>
      </trkpt>
      <trkpt lat="43.56934" lon="3.34714">
        <ele>239.51</ele>
        <time>2014-10-05T10:42:52Z</time>
      </trkpt>
      <trkpt lat="43.56937" lon="3.34748">
        <ele>243.83</ele>
        <time>2014-10-05T10:43:05Z</time>
      </trkpt>
      <trkpt lat="43.56936" lon="3.34789">
        <ele>246.23</ele>
        <time>2014-10-05T10:43:18Z</time>
      </trkpt>
      <trkpt lat="43.56937" lon="3.34805">
        <ele>247.68</ele>
        <time>2014-10-05T10:43:22Z</time>
      </trkpt>
      <trkpt lat="43.56943" lon="3.34828">
        <ele>250.08</ele>
        <time>2014-10-05T10:43:28Z</time>
      </trkpt>
      <trkpt lat="43.56948" lon="3.3486">
        <ele>252</ele>
        <time>2014-10-05T10:43:36Z</time>
      </trkpt>
      <trkpt lat="43.5696" lon="3.34871">
        <ele>252.48</ele>
        <time>2014-10-05T10:43:41Z</time>
      </trkpt>
      <trkpt lat="43.56974" lon="3.34911">
        <ele>251.04</ele>
        <time>2014-10-05T10:43:51Z</time>
      </trkpt>
      <trkpt lat="43.56979" lon="3.34938">
        <ele>250.56</ele>
        <time>2014-10-05T10:43:57Z</time>
      </trkpt>
      <trkpt lat="43.56977" lon="3.35002">
        <ele>240.95</ele>
        <time>2014-10-05T10:44:08Z</time>
      </trkpt>
      <trkpt lat="43.56964" lon="3.35037">
        <ele>232.3</ele>
        <time>2014-10-05T10:44:14Z</time>
      </trkpt>
      <trkpt lat="43.56951" lon="3.35087">
        <ele>219.8</ele>
        <time>2014-10-05T10:44:23Z</time>
      </trkpt>
      <trkpt lat="43.56952" lon="3.35091">
        <ele>218.36</ele>
        <time>2014-10-05T10:44:24Z</time>
      </trkpt>
      <trkpt lat="43.56962" lon="3.35108">
        <ele>214.51</ele>
        <time>2014-10-05T10:44:28Z</time>
      </trkpt>
      <trkpt lat="43.56992" lon="3.35116">
        <ele>211.15</ele>
        <time>2014-10-05T10:44:37Z</time>
      </trkpt>
      <trkpt lat="43.56994" lon="3.35119">
        <ele>211.15</ele>
        <time>2014-10-05T10:44:38Z</time>
      </trkpt>
      <trkpt lat="43.57006" lon="3.35136">
        <ele>210.19</ele>
        <time>2014-10-05T10:44:42Z</time>
      </trkpt>
      <trkpt lat="43.57018" lon="3.35154">
        <ele>208.74</ele>
        <time>2014-10-05T10:44:46Z</time>
      </trkpt>
      <trkpt lat="43.57045" lon="3.3518">
        <ele>206.82</ele>
        <time>2014-10-05T10:44:52Z</time>
      </trkpt>
      <trkpt lat="43.57076" lon="3.352">
        <ele>204.9</ele>
        <time>2014-10-05T10:45:00Z</time>
      </trkpt>
      <trkpt lat="43.57093" lon="3.35213">
        <ele>202.01</ele>
        <time>2014-10-05T10:45:04Z</time>
      </trkpt>
      <trkpt lat="43.57113" lon="3.35232">
        <ele>199.61</ele>
        <time>2014-10-05T10:45:08Z</time>
      </trkpt>
      <trkpt lat="43.57145" lon="3.35258">
        <ele>195.28</ele>
        <time>2014-10-05T10:45:16Z</time>
      </trkpt>
      <trkpt lat="43.5717" lon="3.35294">
        <ele>189.04</ele>
        <time>2014-10-05T10:45:26Z</time>
      </trkpt>
      <trkpt lat="43.57175" lon="3.35303">
        <ele>187.59</ele>
        <time>2014-10-05T10:45:29Z</time>
      </trkpt>
      <trkpt lat="43.57178" lon="3.35312">
        <ele>185.67</ele>
        <time>2014-10-05T10:45:32Z</time>
      </trkpt>
      <trkpt lat="43.57183" lon="3.35323">
        <ele>182.31</ele>
        <time>2014-10-05T10:45:43Z</time>
      </trkpt>
      <trkpt lat="43.57186" lon="3.35328">
        <ele>182.79</ele>
        <time>2014-10-05T10:45:54Z</time>
      </trkpt>
      <trkpt lat="43.57188" lon="3.35328">
        <ele>182.31</ele>
        <time>2014-10-05T10:46:10Z</time>
      </trkpt>
      <trkpt lat="43.57188" lon="3.35328">
        <ele>181.83</ele>
        <time>2014-10-05T10:46:15Z</time>
      </trkpt>
      <trkpt lat="43.57195" lon="3.35336">
        <ele>179.42</ele>
        <time>2014-10-05T10:46:21Z</time>
      </trkpt>
      <trkpt lat="43.57198" lon="3.35343">
        <ele>177.98</ele>
        <time>2014-10-05T10:46:23Z</time>
      </trkpt>
      <trkpt lat="43.5721" lon="3.35374">
        <ele>173.66</ele>
        <time>2014-10-05T10:46:31Z</time>
      </trkpt>
      <trkpt lat="43.57223" lon="3.35418">
        <ele>169.33</ele>
        <time>2014-10-05T10:46:39Z</time>
      </trkpt>
      <trkpt lat="43.57225" lon="3.35421">
        <ele>169.33</ele>
        <time>2014-10-05T10:46:40Z</time>
      </trkpt>
      <trkpt lat="43.57267" lon="3.35456">
        <ele>164.52</ele>
        <time>2014-10-05T10:46:49Z</time>
      </trkpt>
      <trkpt lat="43.57281" lon="3.35463">
        <ele>163.08</ele>
        <time>2014-10-05T10:46:52Z</time>
      </trkpt>
      <trkpt lat="43.57309" lon="3.35467">
        <ele>161.64</ele>
        <time>2014-10-05T10:46:58Z</time>
      </trkpt>
      <trkpt lat="43.57317" lon="3.35471">
        <ele>160.68</ele>
        <time>2014-10-05T10:47:00Z</time>
      </trkpt>
      <trkpt lat="43.5733" lon="3.35473">
        <ele>159.24</ele>
        <time>2014-10-05T10:47:03Z</time>
      </trkpt>
      <trkpt lat="43.57363" lon="3.35477">
        <ele>154.43</ele>
        <time>2014-10-05T10:47:11Z</time>
      </trkpt>
      <trkpt lat="43.57384" lon="3.3548">
        <ele>152.03</ele>
        <time>2014-10-05T10:47:16Z</time>
      </trkpt>
      <trkpt lat="43.57411" lon="3.35491">
        <ele>147.7</ele>
        <time>2014-10-05T10:47:22Z</time>
      </trkpt>
      <trkpt lat="43.57431" lon="3.35505">
        <ele>144.34</ele>
        <time>2014-10-05T10:47:27Z</time>
      </trkpt>
      <trkpt lat="43.57438" lon="3.35508">
        <ele>142.89</ele>
        <time>2014-10-05T10:47:29Z</time>
      </trkpt>
      <trkpt lat="43.57452" lon="3.35526">
        <ele>138.57</ele>
        <time>2014-10-05T10:47:34Z</time>
      </trkpt>
      <trkpt lat="43.57462" lon="3.35541">
        <ele>136.64</ele>
        <time>2014-10-05T10:47:37Z</time>
      </trkpt>
      <trkpt lat="43.57481" lon="3.35565">
        <ele>133.28</ele>
        <time>2014-10-05T10:47:44Z</time>
      </trkpt>
      <trkpt lat="43.57489" lon="3.35566">
        <ele>131.84</ele>
        <time>2014-10-05T10:47:54Z</time>
      </trkpt>
      <trkpt lat="43.57489" lon="3.35564">
        <ele>131.84</ele>
        <time>2014-10-05T10:48:05Z</time>
      </trkpt>
      <trkpt lat="43.57489" lon="3.35564">
        <ele>132.8</ele>
        <time>2014-10-05T10:48:25Z</time>
      </trkpt>
      <trkpt lat="43.57488" lon="3.35564">
        <ele>132.32</ele>
        <time>2014-10-05T10:48:39Z</time>
      </trkpt>
      <trkpt lat="43.57505" lon="3.35588">
        <ele>128.47</ele>
        <time>2014-10-05T10:48:49Z</time>
      </trkpt>
      <trkpt lat="43.57507" lon="3.35613">
        <ele>124.63</ele>
        <time>2014-10-05T10:48:55Z</time>
      </trkpt>
      <trkpt lat="43.57509" lon="3.35631">
        <ele>121.74</ele>
        <time>2014-10-05T10:49:06Z</time>
      </trkpt>
      <trkpt lat="43.57513" lon="3.35642">
        <ele>122.22</ele>
        <time>2014-10-05T10:49:11Z</time>
      </trkpt>
      <trkpt lat="43.57543" lon="3.35672">
        <ele>123.19</ele>
        <time>2014-10-05T10:49:24Z</time>
      </trkpt>
      <trkpt lat="43.57555" lon="3.35691">
        <ele>123.19</ele>
        <time>2014-10-05T10:49:28Z</time>
      </trkpt>
      <trkpt lat="43.57577" lon="3.35745">
        <ele>125.59</ele>
        <time>2014-10-05T10:49:43Z</time>
      </trkpt>
      <trkpt lat="43.57593" lon="3.35784">
        <ele>127.03</ele>
        <time>2014-10-05T10:49:58Z</time>
      </trkpt>
      <trkpt lat="43.57598" lon="3.35846">
        <ele>124.15</ele>
        <time>2014-10-05T10:50:13Z</time>
      </trkpt>
      <trkpt lat="43.57607" lon="3.35926">
        <ele>121.74</ele>
        <time>2014-10-05T10:50:28Z</time>
      </trkpt>
      <trkpt lat="43.57621" lon="3.35982">
        <ele>121.74</ele>
        <time>2014-10-05T10:50:40Z</time>
      </trkpt>
      <trkpt lat="43.57644" lon="3.36038">
        <ele>123.67</ele>
        <time>2014-10-05T10:50:54Z</time>
      </trkpt>
      <trkpt lat="43.57661" lon="3.36085">
        <ele>124.63</ele>
        <time>2014-10-05T10:51:07Z</time>
      </trkpt>
      <trkpt lat="43.57666" lon="3.36102">
        <ele>125.11</ele>
        <time>2014-10-05T10:51:12Z</time>
      </trkpt>
      <trkpt lat="43.57671" lon="3.36143">
        <ele>127.51</ele>
        <time>2014-10-05T10:51:25Z</time>
      </trkpt>
      <trkpt lat="43.57677" lon="3.36177">
        <ele>129.43</ele>
        <time>2014-10-05T10:51:36Z</time>
      </trkpt>
      <trkpt lat="43.57658" lon="3.36198">
        <ele>129.92</ele>
        <time>2014-10-05T10:51:44Z</time>
      </trkpt>
      <trkpt lat="43.57606" lon="3.36258">
        <ele>128.47</ele>
        <time>2014-10-05T10:51:57Z</time>
      </trkpt>
      <trkpt lat="43.57593" lon="3.36277">
        <ele>127.03</ele>
        <time>2014-10-05T10:52:00Z</time>
      </trkpt>
      <trkpt lat="43.57584" lon="3.3631">
        <ele>125.11</ele>
        <time>2014-10-05T10:52:04Z</time>
      </trkpt>
      <trkpt lat="43.57583" lon="3.36345">
        <ele>122.71</ele>
        <time>2014-10-05T10:52:08Z</time>
      </trkpt>
      <trkpt lat="43.57578" lon="3.3637">
        <ele>119.34</ele>
        <time>2014-10-05T10:52:17Z</time>
      </trkpt>
      <trkpt lat="43.57579" lon="3.3637">
        <ele>117.42</ele>
        <time>2014-10-05T10:52:35Z</time>
      </trkpt>
      <trkpt lat="43.57579" lon="3.3637">
        <ele>117.42</ele>
        <time>2014-10-05T10:52:37Z</time>
      </trkpt>
      <trkpt lat="43.57598" lon="3.36381">
        <ele>118.38</ele>
        <time>2014-10-05T10:52:47Z</time>
      </trkpt>
      <trkpt lat="43.57644" lon="3.36393">
        <ele>120.3</ele>
        <time>2014-10-05T10:53:04Z</time>
      </trkpt>
      <trkpt lat="43.57676" lon="3.36398">
        <ele>125.59</ele>
        <time>2014-10-05T10:53:16Z</time>
      </trkpt>
      <trkpt lat="43.57714" lon="3.36404">
        <ele>129.43</ele>
        <time>2014-10-05T10:53:32Z</time>
      </trkpt>
      <trkpt lat="43.57757" lon="3.36409">
        <ele>131.36</ele>
        <time>2014-10-05T10:53:49Z</time>
      </trkpt>
      <trkpt lat="43.5779" lon="3.36404">
        <ele>128.95</ele>
        <time>2014-10-05T10:54:02Z</time>
      </trkpt>
      <trkpt lat="43.57819" lon="3.36397">
        <ele>127.03</ele>
        <time>2014-10-05T10:54:14Z</time>
      </trkpt>
      <trkpt lat="43.57849" lon="3.36389">
        <ele>122.71</ele>
        <time>2014-10-05T10:54:27Z</time>
      </trkpt>
      <trkpt lat="43.57878" lon="3.36383">
        <ele>120.3</ele>
        <time>2014-10-05T10:54:41Z</time>
      </trkpt>
      <trkpt lat="43.57882" lon="3.36384">
        <ele>119.82</ele>
        <time>2014-10-05T10:54:45Z</time>
      </trkpt>
      <trkpt lat="43.57883" lon="3.36385">
        <ele>119.34</ele>
        <time>2014-10-05T10:54:47Z</time>
      </trkpt>
      <trkpt lat="43.57883" lon="3.3639">
        <ele>117.42</ele>
        <time>2014-10-05T10:54:52Z</time>
      </trkpt>
      <trkpt lat="43.57887" lon="3.36404">
        <ele>115.5</ele>
        <time>2014-10-05T10:54:57Z</time>
      </trkpt>
      <trkpt lat="43.57893" lon="3.36445">
        <ele>113.57</ele>
        <time>2014-10-05T10:55:04Z</time>
      </trkpt>
      <trkpt lat="43.57913" lon="3.36491">
        <ele>113.09</ele>
        <time>2014-10-05T10:55:11Z</time>
      </trkpt>
      <trkpt lat="43.57917" lon="3.3651">
        <ele>114.53</ele>
        <time>2014-10-05T10:55:15Z</time>
      </trkpt>
      <trkpt lat="43.57915" lon="3.36521">
        <ele>115.5</ele>
        <time>2014-10-05T10:55:20Z</time>
      </trkpt>
      <trkpt lat="43.5791" lon="3.36526">
        <ele>115.5</ele>
        <time>2014-10-05T10:55:24Z</time>
      </trkpt>
      <trkpt lat="43.57887" lon="3.36533">
        <ele>114.53</ele>
        <time>2014-10-05T10:55:38Z</time>
      </trkpt>
      <trkpt lat="43.57861" lon="3.36538">
        <ele>114.53</ele>
        <time>2014-10-05T10:55:52Z</time>
      </trkpt>
      <trkpt lat="43.5784" lon="3.36557">
        <ele>114.53</ele>
        <time>2014-10-05T10:56:06Z</time>
      </trkpt>
      <trkpt lat="43.57829" lon="3.3661">
        <ele>112.61</ele>
        <time>2014-10-05T10:56:22Z</time>
      </trkpt>
      <trkpt lat="43.57804" lon="3.36656">
        <ele>114.53</ele>
        <time>2014-10-05T10:56:36Z</time>
      </trkpt>
      <trkpt lat="43.57776" lon="3.36702">
        <ele>122.22</ele>
        <time>2014-10-05T10:56:51Z</time>
      </trkpt>
      <trkpt lat="43.5778" lon="3.36749">
        <ele>123.19</ele>
        <time>2014-10-05T10:57:04Z</time>
      </trkpt>
      <trkpt lat="43.57793" lon="3.3681">
        <ele>125.11</ele>
        <time>2014-10-05T10:57:21Z</time>
      </trkpt>
      <trkpt lat="43.57807" lon="3.36869">
        <ele>127.99</ele>
        <time>2014-10-05T10:57:39Z</time>
      </trkpt>
      <trkpt lat="43.5781" lon="3.3691">
        <ele>126.07</ele>
        <time>2014-10-05T10:57:46Z</time>
      </trkpt>
      <trkpt lat="43.57807" lon="3.36934">
        <ele>125.59</ele>
        <time>2014-10-05T10:57:49Z</time>
      </trkpt>
      <trkpt lat="43.57805" lon="3.3696">
        <ele>124.15</ele>
        <time>2014-10-05T10:57:52Z</time>
      </trkpt>
      <trkpt lat="43.57795" lon="3.36995">
        <ele>122.71</ele>
        <time>2014-10-05T10:57:56Z</time>
      </trkpt>
      <trkpt lat="43.57779" lon="3.37049">
        <ele>120.78</ele>
        <time>2014-10-05T10:58:02Z</time>
      </trkpt>
      <trkpt lat="43.57777" lon="3.37084">
        <ele>122.71</ele>
        <time>2014-10-05T10:58:12Z</time>
      </trkpt>
      <trkpt lat="43.57776" lon="3.37088">
        <ele>123.19</ele>
        <time>2014-10-05T10:58:14Z</time>
      </trkpt>
      <trkpt lat="43.57774" lon="3.37113">
        <ele>125.11</ele>
        <time>2014-10-05T10:58:25Z</time>
      </trkpt>
      <trkpt lat="43.57769" lon="3.37151">
        <ele>128.95</ele>
        <time>2014-10-05T10:58:40Z</time>
      </trkpt>
      <trkpt lat="43.57781" lon="3.3718">
        <ele>133.28</ele>
        <time>2014-10-05T10:58:55Z</time>
      </trkpt>
      <trkpt lat="43.57816" lon="3.3721">
        <ele>135.68</ele>
        <time>2014-10-05T10:59:14Z</time>
      </trkpt>
      <trkpt lat="43.57847" lon="3.37238">
        <ele>141.93</ele>
        <time>2014-10-05T10:59:32Z</time>
      </trkpt>
      <trkpt lat="43.5788" lon="3.37264">
        <ele>145.3</ele>
        <time>2014-10-05T10:59:49Z</time>
      </trkpt>
      <trkpt lat="43.57913" lon="3.37286">
        <ele>145.3</ele>
        <time>2014-10-05T11:00:01Z</time>
      </trkpt>
      <trkpt lat="43.57957" lon="3.37317">
        <ele>145.78</ele>
        <time>2014-10-05T11:00:14Z</time>
      </trkpt>
      <trkpt lat="43.57994" lon="3.37341">
        <ele>145.3</ele>
        <time>2014-10-05T11:00:31Z</time>
      </trkpt>
      <trkpt lat="43.58008" lon="3.37375">
        <ele>146.74</ele>
        <time>2014-10-05T11:00:45Z</time>
      </trkpt>
      <trkpt lat="43.58021" lon="3.37415">
        <ele>147.22</ele>
        <time>2014-10-05T11:01:02Z</time>
      </trkpt>
      <trkpt lat="43.58027" lon="3.37438">
        <ele>148.18</ele>
        <time>2014-10-05T11:01:12Z</time>
      </trkpt>
      <trkpt lat="43.58032" lon="3.37458">
        <ele>148.18</ele>
        <time>2014-10-05T11:01:20Z</time>
      </trkpt>
      <trkpt lat="43.58053" lon="3.37496">
        <ele>152.99</ele>
        <time>2014-10-05T11:01:39Z</time>
      </trkpt>
      <trkpt lat="43.58072" lon="3.3753">
        <ele>160.2</ele>
        <time>2014-10-05T11:01:56Z</time>
      </trkpt>
      <trkpt lat="43.58098" lon="3.3756">
        <ele>165</ele>
        <time>2014-10-05T11:02:14Z</time>
      </trkpt>
      <trkpt lat="43.58117" lon="3.376">
        <ele>168.85</ele>
        <time>2014-10-05T11:02:33Z</time>
      </trkpt>
      <trkpt lat="43.58127" lon="3.37637">
        <ele>172.69</ele>
        <time>2014-10-05T11:02:50Z</time>
      </trkpt>
      <trkpt lat="43.5812" lon="3.37691">
        <ele>175.1</ele>
        <time>2014-10-05T11:03:08Z</time>
      </trkpt>
      <trkpt lat="43.5813" lon="3.37733">
        <ele>177.98</ele>
        <time>2014-10-05T11:03:24Z</time>
      </trkpt>
      <trkpt lat="43.58154" lon="3.37767">
        <ele>179.42</ele>
        <time>2014-10-05T11:03:38Z</time>
      </trkpt>
      <trkpt lat="43.58172" lon="3.37806">
        <ele>178.46</ele>
        <time>2014-10-05T11:03:51Z</time>
      </trkpt>
      <trkpt lat="43.58201" lon="3.3783">
        <ele>178.94</ele>
        <time>2014-10-05T11:04:03Z</time>
      </trkpt>
      <trkpt lat="43.58223" lon="3.37862">
        <ele>178.46</ele>
        <time>2014-10-05T11:04:17Z</time>
      </trkpt>
      <trkpt lat="43.58246" lon="3.37878">
        <ele>177.5</ele>
        <time>2014-10-05T11:04:23Z</time>
      </trkpt>
      <trkpt lat="43.58303" lon="3.37928">
        <ele>174.14</ele>
        <time>2014-10-05T11:04:34Z</time>
      </trkpt>
      <trkpt lat="43.58327" lon="3.37957">
        <ele>175.1</ele>
        <time>2014-10-05T11:04:44Z</time>
      </trkpt>
      <trkpt lat="43.58324" lon="3.37995">
        <ele>175.1</ele>
        <time>2014-10-05T11:04:57Z</time>
      </trkpt>
      <trkpt lat="43.58327" lon="3.38018">
        <ele>175.1</ele>
        <time>2014-10-05T11:05:07Z</time>
      </trkpt>
      <trkpt lat="43.58328" lon="3.38019">
        <ele>175.1</ele>
        <time>2014-10-05T11:05:20Z</time>
      </trkpt>
      <trkpt lat="43.58328" lon="3.38019">
        <ele>175.1</ele>
        <time>2014-10-05T11:05:21Z</time>
      </trkpt>
      <trkpt lat="43.58334" lon="3.38049">
        <ele>176.06</ele>
        <time>2014-10-05T11:05:34Z</time>
      </trkpt>
      <trkpt lat="43.58346" lon="3.38073">
        <ele>177.98</ele>
        <time>2014-10-05T11:05:45Z</time>
      </trkpt>
      <trkpt lat="43.58356" lon="3.38117">
        <ele>177.98</ele>
        <time>2014-10-05T11:06:00Z</time>
      </trkpt>
      <trkpt lat="43.58358" lon="3.38123">
        <ele>177.98</ele>
        <time>2014-10-05T11:06:03Z</time>
      </trkpt>
      <trkpt lat="43.58376" lon="3.38151">
        <ele>178.46</ele>
        <time>2014-10-05T11:06:17Z</time>
      </trkpt>
      <trkpt lat="43.58399" lon="3.38182">
        <ele>177.5</ele>
        <time>2014-10-05T11:06:32Z</time>
      </trkpt>
      <trkpt lat="43.58413" lon="3.38211">
        <ele>177.02</ele>
        <time>2014-10-05T11:06:47Z</time>
      </trkpt>
      <trkpt lat="43.58412" lon="3.38229">
        <ele>178.46</ele>
        <time>2014-10-05T11:06:56Z</time>
      </trkpt>
      <trkpt lat="43.58416" lon="3.38249">
        <ele>180.87</ele>
        <time>2014-10-05T11:07:07Z</time>
      </trkpt>
      <trkpt lat="43.58422" lon="3.38263">
        <ele>182.31</ele>
        <time>2014-10-05T11:07:21Z</time>
      </trkpt>
      <trkpt lat="43.58427" lon="3.38277">
        <ele>182.79</ele>
        <time>2014-10-05T11:07:34Z</time>
      </trkpt>
      <trkpt lat="43.58429" lon="3.38282">
        <ele>183.27</ele>
        <time>2014-10-05T11:07:44Z</time>
      </trkpt>
      <trkpt lat="43.58428" lon="3.38282">
        <ele>183.27</ele>
        <time>2014-10-05T11:07:54Z</time>
      </trkpt>
      <trkpt lat="43.58432" lon="3.38311">
        <ele>187.11</ele>
        <time>2014-10-05T11:08:08Z</time>
      </trkpt>
      <trkpt lat="43.58434" lon="3.3834">
        <ele>190.48</ele>
        <time>2014-10-05T11:08:22Z</time>
      </trkpt>
      <trkpt lat="43.58436" lon="3.38348">
        <ele>190.96</ele>
        <time>2014-10-05T11:08:26Z</time>
      </trkpt>
      <trkpt lat="43.58441" lon="3.38385">
        <ele>192.88</ele>
        <time>2014-10-05T11:08:42Z</time>
      </trkpt>
      <trkpt lat="43.58439" lon="3.38433">
        <ele>196.25</ele>
        <time>2014-10-05T11:08:59Z</time>
      </trkpt>
      <trkpt lat="43.58438" lon="3.38463">
        <ele>197.69</ele>
        <time>2014-10-05T11:09:13Z</time>
      </trkpt>
      <trkpt lat="43.58463" lon="3.38475">
        <ele>196.25</ele>
        <time>2014-10-05T11:09:25Z</time>
      </trkpt>
      <trkpt lat="43.58479" lon="3.38489">
        <ele>195.28</ele>
        <time>2014-10-05T11:09:30Z</time>
      </trkpt>
      <trkpt lat="43.58495" lon="3.38524">
        <ele>194.32</ele>
        <time>2014-10-05T11:09:37Z</time>
      </trkpt>
      <trkpt lat="43.58496" lon="3.38536">
        <ele>194.32</ele>
        <time>2014-10-05T11:09:39Z</time>
      </trkpt>
      <trkpt lat="43.58502" lon="3.38598">
        <ele>195.77</ele>
        <time>2014-10-05T11:09:52Z</time>
      </trkpt>
      <trkpt lat="43.58508" lon="3.3866">
        <ele>198.65</ele>
        <time>2014-10-05T11:10:09Z</time>
      </trkpt>
      <trkpt lat="43.58517" lon="3.38706">
        <ele>199.61</ele>
        <time>2014-10-05T11:10:25Z</time>
      </trkpt>
      <trkpt lat="43.58519" lon="3.38752">
        <ele>201.53</ele>
        <time>2014-10-05T11:10:38Z</time>
      </trkpt>
      <trkpt lat="43.58516" lon="3.38808">
        <ele>204.9</ele>
        <time>2014-10-05T11:10:54Z</time>
      </trkpt>
      <trkpt lat="43.5851" lon="3.38848">
        <ele>208.74</ele>
        <time>2014-10-05T11:11:08Z</time>
      </trkpt>
      <trkpt lat="43.58508" lon="3.38881">
        <ele>210.67</ele>
        <time>2014-10-05T11:11:20Z</time>
      </trkpt>
      <trkpt lat="43.58483" lon="3.38912">
        <ele>213.07</ele>
        <time>2014-10-05T11:11:36Z</time>
      </trkpt>
      <trkpt lat="43.58465" lon="3.3894">
        <ele>214.99</ele>
        <time>2014-10-05T11:11:49Z</time>
      </trkpt>
      <trkpt lat="43.58455" lon="3.38982">
        <ele>219.32</ele>
        <time>2014-10-05T11:12:04Z</time>
      </trkpt>
      <trkpt lat="43.58448" lon="3.39021">
        <ele>221.24</ele>
        <time>2014-10-05T11:12:18Z</time>
      </trkpt>
      <trkpt lat="43.58436" lon="3.39061">
        <ele>224.61</ele>
        <time>2014-10-05T11:12:34Z</time>
      </trkpt>
      <trkpt lat="43.5842" lon="3.39102">
        <ele>227.97</ele>
        <time>2014-10-05T11:12:53Z</time>
      </trkpt>
      <trkpt lat="43.58411" lon="3.39139">
        <ele>229.89</ele>
        <time>2014-10-05T11:13:08Z</time>
      </trkpt>
      <trkpt lat="43.58393" lon="3.39184">
        <ele>233.26</ele>
        <time>2014-10-05T11:13:26Z</time>
      </trkpt>
      <trkpt lat="43.58367" lon="3.39224">
        <ele>236.62</ele>
        <time>2014-10-05T11:13:43Z</time>
      </trkpt>
      <trkpt lat="43.58332" lon="3.39269">
        <ele>238.54</ele>
        <time>2014-10-05T11:14:02Z</time>
      </trkpt>
      <trkpt lat="43.58308" lon="3.39311">
        <ele>240.95</ele>
        <time>2014-10-05T11:14:18Z</time>
      </trkpt>
      <trkpt lat="43.58294" lon="3.39357">
        <ele>243.35</ele>
        <time>2014-10-05T11:14:34Z</time>
      </trkpt>
      <trkpt lat="43.58285" lon="3.39371">
        <ele>245.75</ele>
        <time>2014-10-05T11:14:41Z</time>
      </trkpt>
      <trkpt lat="43.58293" lon="3.39386">
        <ele>245.75</ele>
        <time>2014-10-05T11:14:50Z</time>
      </trkpt>
      <trkpt lat="43.58316" lon="3.39406">
        <ele>245.75</ele>
        <time>2014-10-05T11:15:06Z</time>
      </trkpt>
      <trkpt lat="43.58341" lon="3.39427">
        <ele>243.83</ele>
        <time>2014-10-05T11:15:20Z</time>
      </trkpt>
      <trkpt lat="43.58347" lon="3.39433">
        <ele>243.35</ele>
        <time>2014-10-05T11:15:25Z</time>
      </trkpt>
      <trkpt lat="43.5836" lon="3.39465">
        <ele>242.87</ele>
        <time>2014-10-05T11:15:40Z</time>
      </trkpt>
      <trkpt lat="43.58363" lon="3.3948">
        <ele>242.87</ele>
        <time>2014-10-05T11:15:47Z</time>
      </trkpt>
      <trkpt lat="43.58373" lon="3.39519">
        <ele>243.83</ele>
        <time>2014-10-05T11:16:02Z</time>
      </trkpt>
      <trkpt lat="43.58385" lon="3.39549">
        <ele>247.2</ele>
        <time>2014-10-05T11:16:17Z</time>
      </trkpt>
      <trkpt lat="43.58395" lon="3.39582">
        <ele>251.04</ele>
        <time>2014-10-05T11:16:35Z</time>
      </trkpt>
      <trkpt lat="43.58376" lon="3.39612">
        <ele>255.37</ele>
        <time>2014-10-05T11:16:53Z</time>
      </trkpt>
      <trkpt lat="43.58369" lon="3.39646">
        <ele>257.29</ele>
        <time>2014-10-05T11:17:10Z</time>
      </trkpt>
      <trkpt lat="43.58374" lon="3.39685">
        <ele>258.73</ele>
        <time>2014-10-05T11:17:26Z</time>
      </trkpt>
      <trkpt lat="43.58375" lon="3.39728">
        <ele>260.65</ele>
        <time>2014-10-05T11:17:44Z</time>
      </trkpt>
      <trkpt lat="43.58374" lon="3.3974">
        <ele>262.1</ele>
        <time>2014-10-05T11:17:49Z</time>
      </trkpt>
      <trkpt lat="43.58396" lon="3.39778">
        <ele>264.98</ele>
        <time>2014-10-05T11:18:09Z</time>
      </trkpt>
      <trkpt lat="43.58425" lon="3.39798">
        <ele>266.42</ele>
        <time>2014-10-05T11:18:26Z</time>
      </trkpt>
      <trkpt lat="43.58434" lon="3.39824">
        <ele>268.83</ele>
        <time>2014-10-05T11:18:39Z</time>
      </trkpt>
      <trkpt lat="43.58418" lon="3.39859">
        <ele>272.67</ele>
        <time>2014-10-05T11:18:56Z</time>
      </trkpt>
      <trkpt lat="43.58401" lon="3.39896">
        <ele>278.44</ele>
        <time>2014-10-05T11:19:14Z</time>
      </trkpt>
      <trkpt lat="43.58395" lon="3.39922">
        <ele>279.4</ele>
        <time>2014-10-05T11:19:25Z</time>
      </trkpt>
      <trkpt lat="43.58398" lon="3.39934">
        <ele>280.36</ele>
        <time>2014-10-05T11:19:30Z</time>
      </trkpt>
      <trkpt lat="43.58406" lon="3.39944">
        <ele>282.28</ele>
        <time>2014-10-05T11:19:36Z</time>
      </trkpt>
      <trkpt lat="43.58412" lon="3.39944">
        <ele>283.25</ele>
        <time>2014-10-05T11:19:40Z</time>
      </trkpt>
      <trkpt lat="43.58439" lon="3.39932">
        <ele>287.09</ele>
        <time>2014-10-05T11:19:57Z</time>
      </trkpt>
      <trkpt lat="43.58474" lon="3.39933">
        <ele>287.09</ele>
        <time>2014-10-05T11:20:16Z</time>
      </trkpt>
      <trkpt lat="43.58507" lon="3.39927">
        <ele>286.61</ele>
        <time>2014-10-05T11:20:30Z</time>
      </trkpt>
      <trkpt lat="43.58555" lon="3.39911">
        <ele>284.69</ele>
        <time>2014-10-05T11:20:46Z</time>
      </trkpt>
      <trkpt lat="43.58581" lon="3.39888">
        <ele>285.17</ele>
        <time>2014-10-05T11:20:58Z</time>
      </trkpt>
      <trkpt lat="43.58615" lon="3.39856">
        <ele>284.21</ele>
        <time>2014-10-05T11:21:11Z</time>
      </trkpt>
      <trkpt lat="43.58642" lon="3.39845">
        <ele>284.21</ele>
        <time>2014-10-05T11:21:18Z</time>
      </trkpt>
      <trkpt lat="43.58698" lon="3.39845">
        <ele>283.25</ele>
        <time>2014-10-05T11:21:33Z</time>
      </trkpt>
      <trkpt lat="43.58702" lon="3.39844">
        <ele>282.77</ele>
        <time>2014-10-05T11:21:34Z</time>
      </trkpt>
      <trkpt lat="43.58718" lon="3.39847">
        <ele>282.28</ele>
        <time>2014-10-05T11:21:38Z</time>
      </trkpt>
      <trkpt lat="43.58787" lon="3.39842">
        <ele>279.4</ele>
        <time>2014-10-05T11:21:54Z</time>
      </trkpt>
      <trkpt lat="43.58796" lon="3.39843">
        <ele>279.4</ele>
        <time>2014-10-05T11:21:56Z</time>
      </trkpt>
      <trkpt lat="43.5884" lon="3.39842">
        <ele>278.92</ele>
        <time>2014-10-05T11:22:06Z</time>
      </trkpt>
      <trkpt lat="43.58913" lon="3.39818">
        <ele>278.44</ele>
        <time>2014-10-05T11:22:23Z</time>
      </trkpt>
      <trkpt lat="43.58917" lon="3.39815">
        <ele>278.44</ele>
        <time>2014-10-05T11:22:24Z</time>
      </trkpt>
      <trkpt lat="43.58935" lon="3.39809">
        <ele>278.44</ele>
        <time>2014-10-05T11:22:28Z</time>
      </trkpt>
      <trkpt lat="43.58956" lon="3.39812">
        <ele>278.92</ele>
        <time>2014-10-05T11:22:33Z</time>
      </trkpt>
      <trkpt lat="43.58991" lon="3.39831">
        <ele>280.84</ele>
        <time>2014-10-05T11:22:43Z</time>
      </trkpt>
      <trkpt lat="43.59014" lon="3.39848">
        <ele>281.32</ele>
        <time>2014-10-05T11:22:50Z</time>
      </trkpt>
      <trkpt lat="43.59059" lon="3.39842">
        <ele>282.77</ele>
        <time>2014-10-05T11:23:04Z</time>
      </trkpt>
      <trkpt lat="43.59094" lon="3.39844">
        <ele>284.21</ele>
        <time>2014-10-05T11:23:15Z</time>
      </trkpt>
      <trkpt lat="43.59114" lon="3.39808">
        <ele>286.61</ele>
        <time>2014-10-05T11:23:27Z</time>
      </trkpt>
      <trkpt lat="43.59137" lon="3.3977">
        <ele>288.53</ele>
        <time>2014-10-05T11:23:40Z</time>
      </trkpt>
      <trkpt lat="43.59144" lon="3.39715">
        <ele>289.01</ele>
        <time>2014-10-05T11:23:53Z</time>
      </trkpt>
      <trkpt lat="43.5915" lon="3.39632">
        <ele>288.05</ele>
        <time>2014-10-05T11:24:09Z</time>
      </trkpt>
      <trkpt lat="43.5915" lon="3.39597">
        <ele>286.61</ele>
        <time>2014-10-05T11:24:15Z</time>
      </trkpt>
      <trkpt lat="43.59144" lon="3.39538">
        <ele>283.73</ele>
        <time>2014-10-05T11:24:24Z</time>
      </trkpt>
      <trkpt lat="43.59129" lon="3.39481">
        <ele>280.84</ele>
        <time>2014-10-05T11:24:31Z</time>
      </trkpt>
      <trkpt lat="43.59126" lon="3.39468">
        <ele>280.84</ele>
        <time>2014-10-05T11:24:33Z</time>
      </trkpt>
      <trkpt lat="43.59122" lon="3.39446">
        <ele>280.36</ele>
        <time>2014-10-05T11:24:36Z</time>
      </trkpt>
      <trkpt lat="43.59124" lon="3.39406">
        <ele>278.92</ele>
        <time>2014-10-05T11:24:41Z</time>
      </trkpt>
      <trkpt lat="43.59123" lon="3.39377">
        <ele>277.96</ele>
        <time>2014-10-05T11:24:45Z</time>
      </trkpt>
      <trkpt lat="43.59134" lon="3.39376">
        <ele>277</ele>
        <time>2014-10-05T11:24:50Z</time>
      </trkpt>
      <trkpt lat="43.59138" lon="3.39415">
        <ele>274.59</ele>
        <time>2014-10-05T11:24:56Z</time>
      </trkpt>
      <trkpt lat="43.59154" lon="3.39457">
        <ele>272.19</ele>
        <time>2014-10-05T11:25:01Z</time>
      </trkpt>
      <trkpt lat="43.59213" lon="3.39554">
        <ele>264.5</ele>
        <time>2014-10-05T11:25:12Z</time>
      </trkpt>
      <trkpt lat="43.59236" lon="3.3959">
        <ele>261.62</ele>
        <time>2014-10-05T11:25:16Z</time>
      </trkpt>
      <trkpt lat="43.5925" lon="3.39605">
        <ele>260.65</ele>
        <time>2014-10-05T11:25:18Z</time>
      </trkpt>
      <trkpt lat="43.59275" lon="3.39608">
        <ele>259.21</ele>
        <time>2014-10-05T11:25:24Z</time>
      </trkpt>
      <trkpt lat="43.59305" lon="3.39582">
        <ele>256.33</ele>
        <time>2014-10-05T11:25:31Z</time>
      </trkpt>
      <trkpt lat="43.59311" lon="3.39577">
        <ele>256.33</ele>
        <time>2014-10-05T11:25:33Z</time>
      </trkpt>
      <trkpt lat="43.59329" lon="3.39571">
        <ele>254.41</ele>
        <time>2014-10-05T11:25:37Z</time>
      </trkpt>
      <trkpt lat="43.59408" lon="3.39579">
        <ele>247.2</ele>
        <time>2014-10-05T11:25:51Z</time>
      </trkpt>
      <trkpt lat="43.595" lon="3.39607">
        <ele>238.54</ele>
        <time>2014-10-05T11:26:06Z</time>
      </trkpt>
      <trkpt lat="43.59551" lon="3.39623">
        <ele>233.74</ele>
        <time>2014-10-05T11:26:13Z</time>
      </trkpt>
      <trkpt lat="43.59567" lon="3.39626">
        <ele>232.3</ele>
        <time>2014-10-05T11:26:15Z</time>
      </trkpt>
      <trkpt lat="43.59609" lon="3.39616">
        <ele>227.97</ele>
        <time>2014-10-05T11:26:21Z</time>
      </trkpt>
      <trkpt lat="43.596" lon="3.39604">
        <ele>226.05</ele>
        <time>2014-10-05T11:26:29Z</time>
      </trkpt>
      <trkpt lat="43.59583" lon="3.39604">
        <ele>224.61</ele>
        <time>2014-10-05T11:26:33Z</time>
      </trkpt>
      <trkpt lat="43.59556" lon="3.39593">
        <ele>222.68</ele>
        <time>2014-10-05T11:26:38Z</time>
      </trkpt>
      <trkpt lat="43.59507" lon="3.39553">
        <ele>219.8</ele>
        <time>2014-10-05T11:26:46Z</time>
      </trkpt>
      <trkpt lat="43.59488" lon="3.39543">
        <ele>218.84</ele>
        <time>2014-10-05T11:26:49Z</time>
      </trkpt>
      <trkpt lat="43.59494" lon="3.39533">
        <ele>217.4</ele>
        <time>2014-10-05T11:26:55Z</time>
      </trkpt>
      <trkpt lat="43.59502" lon="3.39538">
        <ele>216.43</ele>
        <time>2014-10-05T11:26:57Z</time>
      </trkpt>
      <trkpt lat="43.59559" lon="3.39548">
        <ele>211.63</ele>
        <time>2014-10-05T11:27:06Z</time>
      </trkpt>
      <trkpt lat="43.59594" lon="3.3954">
        <ele>208.74</ele>
        <time>2014-10-05T11:27:11Z</time>
      </trkpt>
      <trkpt lat="43.59614" lon="3.39526">
        <ele>205.86</ele>
        <time>2014-10-05T11:27:14Z</time>
      </trkpt>
      <trkpt lat="43.59649" lon="3.39515">
        <ele>200.57</ele>
        <time>2014-10-05T11:27:19Z</time>
      </trkpt>
      <trkpt lat="43.59684" lon="3.39519">
        <ele>197.69</ele>
        <time>2014-10-05T11:27:24Z</time>
      </trkpt>
      <trkpt lat="43.59721" lon="3.39533">
        <ele>195.28</ele>
        <time>2014-10-05T11:27:29Z</time>
      </trkpt>
      <trkpt lat="43.59741" lon="3.39541">
        <ele>194.32</ele>
        <time>2014-10-05T11:27:32Z</time>
      </trkpt>
      <trkpt lat="43.5976" lon="3.39554">
        <ele>192.4</ele>
        <time>2014-10-05T11:27:35Z</time>
      </trkpt>
      <trkpt lat="43.59774" lon="3.39571">
        <ele>190</ele>
        <time>2014-10-05T11:27:38Z</time>
      </trkpt>
      <trkpt lat="43.59784" lon="3.39591">
        <ele>187.11</ele>
        <time>2014-10-05T11:27:41Z</time>
      </trkpt>
      <trkpt lat="43.59795" lon="3.39655">
        <ele>180.38</ele>
        <time>2014-10-05T11:27:49Z</time>
      </trkpt>
      <trkpt lat="43.59805" lon="3.39697">
        <ele>176.54</ele>
        <time>2014-10-05T11:27:54Z</time>
      </trkpt>
      <trkpt lat="43.59828" lon="3.39732">
        <ele>172.69</ele>
        <time>2014-10-05T11:27:59Z</time>
      </trkpt>
      <trkpt lat="43.59883" lon="3.39775">
        <ele>164.04</ele>
        <time>2014-10-05T11:28:07Z</time>
      </trkpt>
      <trkpt lat="43.59909" lon="3.39809">
        <ele>158.75</ele>
        <time>2014-10-05T11:28:14Z</time>
      </trkpt>
      <trkpt lat="43.59924" lon="3.39858">
        <ele>153.95</ele>
        <time>2014-10-05T11:28:21Z</time>
      </trkpt>
      <trkpt lat="43.59942" lon="3.39881">
        <ele>151.54</ele>
        <time>2014-10-05T11:28:26Z</time>
      </trkpt>
      <trkpt lat="43.59992" lon="3.39895">
        <ele>146.74</ele>
        <time>2014-10-05T11:28:34Z</time>
      </trkpt>
      <trkpt lat="43.60015" lon="3.39912">
        <ele>144.34</ele>
        <time>2014-10-05T11:28:38Z</time>
      </trkpt>
      <trkpt lat="43.60073" lon="3.40005">
        <ele>139.05</ele>
        <time>2014-10-05T11:28:51Z</time>
      </trkpt>
      <trkpt lat="43.60076" lon="3.40009">
        <ele>138.57</ele>
        <time>2014-10-05T11:28:58Z</time>
      </trkpt>
      <trkpt lat="43.60081" lon="3.40025">
        <ele>139.05</ele>
        <time>2014-10-05T11:29:10Z</time>
      </trkpt>
      <trkpt lat="43.60091" lon="3.40074">
        <ele>140.01</ele>
        <time>2014-10-05T11:29:23Z</time>
      </trkpt>
      <trkpt lat="43.60112" lon="3.40125">
        <ele>140.01</ele>
        <time>2014-10-05T11:29:37Z</time>
      </trkpt>
      <trkpt lat="43.60137" lon="3.40167">
        <ele>137.13</ele>
        <time>2014-10-05T11:29:48Z</time>
      </trkpt>
      <trkpt lat="43.60136" lon="3.40213">
        <ele>132.8</ele>
        <time>2014-10-05T11:29:56Z</time>
      </trkpt>
      <trkpt lat="43.60132" lon="3.40222">
        <ele>131.84</ele>
        <time>2014-10-05T11:29:58Z</time>
      </trkpt>
      <trkpt lat="43.60136" lon="3.4023">
        <ele>130.88</ele>
        <time>2014-10-05T11:30:02Z</time>
      </trkpt>
      <trkpt lat="43.60143" lon="3.4023">
        <ele>130.4</ele>
        <time>2014-10-05T11:30:04Z</time>
      </trkpt>
      <trkpt lat="43.60156" lon="3.40232">
        <ele>128.47</ele>
        <time>2014-10-05T11:30:07Z</time>
      </trkpt>
      <trkpt lat="43.60178" lon="3.40246">
        <ele>126.55</ele>
        <time>2014-10-05T11:30:11Z</time>
      </trkpt>
      <trkpt lat="43.60189" lon="3.40259">
        <ele>125.59</ele>
        <time>2014-10-05T11:30:13Z</time>
      </trkpt>
      <trkpt lat="43.60218" lon="3.40306">
        <ele>121.26</ele>
        <time>2014-10-05T11:30:19Z</time>
      </trkpt>
      <trkpt lat="43.60246" lon="3.4038">
        <ele>115.5</ele>
        <time>2014-10-05T11:30:26Z</time>
      </trkpt>
      <trkpt lat="43.60241" lon="3.40397">
        <ele>115.01</ele>
        <time>2014-10-05T11:30:28Z</time>
      </trkpt>
      <trkpt lat="43.60219" lon="3.40434">
        <ele>113.57</ele>
        <time>2014-10-05T11:30:33Z</time>
      </trkpt>
      <trkpt lat="43.60199" lon="3.40453">
        <ele>113.09</ele>
        <time>2014-10-05T11:30:37Z</time>
      </trkpt>
      <trkpt lat="43.60197" lon="3.40492">
        <ele>112.13</ele>
        <time>2014-10-05T11:30:43Z</time>
      </trkpt>
      <trkpt lat="43.60215" lon="3.40524">
        <ele>112.61</ele>
        <time>2014-10-05T11:30:49Z</time>
      </trkpt>
      <trkpt lat="43.60233" lon="3.40565">
        <ele>115.01</ele>
        <time>2014-10-05T11:30:58Z</time>
      </trkpt>
      <trkpt lat="43.60254" lon="3.40585">
        <ele>118.86</ele>
        <time>2014-10-05T11:31:11Z</time>
      </trkpt>
      <trkpt lat="43.60302" lon="3.40587">
        <ele>123.67</ele>
        <time>2014-10-05T11:31:29Z</time>
      </trkpt>
      <trkpt lat="43.60327" lon="3.40589">
        <ele>124.63</ele>
        <time>2014-10-05T11:31:37Z</time>
      </trkpt>
      <trkpt lat="43.60353" lon="3.40598">
        <ele>123.67</ele>
        <time>2014-10-05T11:31:43Z</time>
      </trkpt>
      <trkpt lat="43.60366" lon="3.40607">
        <ele>123.67</ele>
        <time>2014-10-05T11:31:46Z</time>
      </trkpt>
      <trkpt lat="43.6041" lon="3.40646">
        <ele>126.55</ele>
        <time>2014-10-05T11:32:00Z</time>
      </trkpt>
      <trkpt lat="43.60437" lon="3.40674">
        <ele>126.55</ele>
        <time>2014-10-05T11:32:12Z</time>
      </trkpt>
      <trkpt lat="43.60441" lon="3.40675">
        <ele>126.55</ele>
        <time>2014-10-05T11:32:13Z</time>
      </trkpt>
      <trkpt lat="43.60476" lon="3.40669">
        <ele>128.47</ele>
        <time>2014-10-05T11:32:23Z</time>
      </trkpt>
      <trkpt lat="43.60497" lon="3.40651">
        <ele>128.95</ele>
        <time>2014-10-05T11:32:32Z</time>
      </trkpt>
      <trkpt lat="43.60517" lon="3.40644">
        <ele>127.51</ele>
        <time>2014-10-05T11:32:38Z</time>
      </trkpt>
      <trkpt lat="43.60529" lon="3.40648">
        <ele>126.07</ele>
        <time>2014-10-05T11:32:50Z</time>
      </trkpt>
      <trkpt lat="43.60535" lon="3.40639">
        <ele>125.11</ele>
        <time>2014-10-05T11:33:04Z</time>
      </trkpt>
      <trkpt lat="43.60547" lon="3.40642">
        <ele>120.3</ele>
        <time>2014-10-05T11:33:19Z</time>
      </trkpt>
      <trkpt lat="43.60553" lon="3.40653">
        <ele>121.26</ele>
        <time>2014-10-05T11:33:32Z</time>
      </trkpt>
      <trkpt lat="43.60563" lon="3.40656">
        <ele>122.71</ele>
        <time>2014-10-05T11:33:46Z</time>
      </trkpt>
      <trkpt lat="43.60576" lon="3.40661">
        <ele>124.15</ele>
        <time>2014-10-05T11:33:55Z</time>
      </trkpt>
      <trkpt lat="43.60581" lon="3.40658">
        <ele>125.11</ele>
        <time>2014-10-05T11:34:05Z</time>
      </trkpt>
      <trkpt lat="43.60583" lon="3.40655">
        <ele>126.07</ele>
        <time>2014-10-05T11:34:08Z</time>
      </trkpt>
      <trkpt lat="43.60593" lon="3.4065">
        <ele>129.43</ele>
        <time>2014-10-05T11:34:18Z</time>
      </trkpt>
      <trkpt lat="43.60595" lon="3.40649">
        <ele>130.88</ele>
        <time>2014-10-05T11:34:21Z</time>
      </trkpt>
      <trkpt lat="43.60604" lon="3.40634">
        <ele>130.4</ele>
        <time>2014-10-05T11:34:29Z</time>
      </trkpt>
      <trkpt lat="43.60629" lon="3.40596">
        <ele>133.76</ele>
        <time>2014-10-05T11:34:45Z</time>
      </trkpt>
      <trkpt lat="43.60655" lon="3.40574">
        <ele>137.13</ele>
        <time>2014-10-05T11:34:55Z</time>
      </trkpt>
      <trkpt lat="43.60701" lon="3.40543">
        <ele>139.05</ele>
        <time>2014-10-05T11:35:08Z</time>
      </trkpt>
      <trkpt lat="43.6076" lon="3.40502">
        <ele>140.49</ele>
        <time>2014-10-05T11:35:25Z</time>
      </trkpt>
      <trkpt lat="43.60809" lon="3.40465">
        <ele>140.97</ele>
        <time>2014-10-05T11:35:40Z</time>
      </trkpt>
      <trkpt lat="43.60855" lon="3.40412">
        <ele>142.89</ele>
        <time>2014-10-05T11:35:57Z</time>
      </trkpt>
      <trkpt lat="43.60892" lon="3.40365">
        <ele>146.74</ele>
        <time>2014-10-05T11:36:13Z</time>
      </trkpt>
      <trkpt lat="43.6092" lon="3.4033">
        <ele>148.18</ele>
        <time>2014-10-05T11:36:25Z</time>
      </trkpt>
      <trkpt lat="43.60957" lon="3.40283">
        <ele>149.14</ele>
        <time>2014-10-05T11:36:39Z</time>
      </trkpt>
      <trkpt lat="43.60988" lon="3.40243">
        <ele>149.14</ele>
        <time>2014-10-05T11:36:52Z</time>
      </trkpt>
      <trkpt lat="43.61012" lon="3.40209">
        <ele>149.62</ele>
        <time>2014-10-05T11:37:04Z</time>
      </trkpt>
      <trkpt lat="43.61042" lon="3.40173">
        <ele>151.54</ele>
        <time>2014-10-05T11:37:19Z</time>
      </trkpt>
      <trkpt lat="43.61045" lon="3.4017">
        <ele>151.54</ele>
        <time>2014-10-05T11:37:21Z</time>
      </trkpt>
      <trkpt lat="43.61052" lon="3.4018">
        <ele>150.58</ele>
        <time>2014-10-05T11:37:27Z</time>
      </trkpt>
      <trkpt lat="43.61047" lon="3.40215">
        <ele>143.37</ele>
        <time>2014-10-05T11:37:39Z</time>
      </trkpt>
      <trkpt lat="43.61047" lon="3.40218">
        <ele>143.37</ele>
        <time>2014-10-05T11:37:56Z</time>
      </trkpt>
    </trkseg>
  </trk>
</gpx>